Time,TemperatureF,DewpointF,PressureIn,WindDirection,WindDirectionDegrees,WindSpeedMPH,WindSpeedGustMPH,Humidity,HourlyPrecipIn,Conditions,Clouds,dailyrainin,SoftwareType,DateUTC
2013-02-04 00:00:00,13.5,12.3,29.96,West,264,0.0,0.0,95,0.00,CLR,,0.00,WeatherDisplay:10.37,2013-02-04 06:00:00,
2013-02-04 00:02:00,13.6,12.4,29.96,West,264,0.0,0.0,95,0.00,CLR,,0.00,WeatherDisplay:10.37,2013-02-04 06:02:00,
2013-02-04 00:03:00,13.5,12.6,29.96,West,264,0.0,0.0,96,0.00,CLR,,0.00,WeatherDisplay:10.37,2013-02-04 06:03:00,
2013-02-04 00:05:00,13.5,12.6,29.96,West,264,0.0,0.0,96,0.00,CLR,,0.00,WeatherDisplay:10.37,2013-02-04 06:05:00,
2013-02-04 00:07:00,13.4,12.5,29.96,West,264,0.0,0.0,96,0.00,CLR,,0.00,WeatherDisplay:10.37,2013-02-04 06:07:00,
2013-02-04 00:08:00,13.5,12.6,29.96,West,264,0.0,0.0,96,0.00,CLR,,0.00,WeatherDisplay:10.37,2013-02-04 06:08:00,
2013-02-04 00:10:00,13.4,12.5,29.95,West,264,0.0,0.0,96,0.00,CLR,,0.00,WeatherDisplay:10.37,2013-02-04 06:10:00,
2013-02-04 00:12:00,13.5,12.6,29.95,West,264,0.0,0.0,96,0.00,CLR,,0.00,WeatherDisplay:10.37,2013-02-04 06:12:00,
2013-02-04 00:13:00,13.4,12.5,29.95,West,264,0.0,0.0,96,0.00,CLR,,0.00,WeatherDisplay:10.37,2013-02-04 06:13:00,
2013-02-04 00:15:00,13.5,12.6,29.95,West,264,0.0,0.0,96,0.00,CLR,,0.00,WeatherDisplay:10.37,2013-02-04 06:15:00,
2013-02-04 00:17:00,13.5,12.6,29.95,West,264,0.0,0.0,96,0.00,CLR,,0.00,WeatherDisplay:10.37,2013-02-04 06:17:00,
2013-02-04 00:18:00,13.5,12.6,29.95,West,264,0.0,0.0,96,0.00,CLR,,0.00,WeatherDisplay:10.37,2013-02-04 06:18:00,
2013-02-04 00:20:00,13.6,12.7,29.95,West,264,0.0,0.0,96,0.00,CLR,,0.00,WeatherDisplay:10.37,2013-02-04 06:20:00,
2013-02-04 00:22:00,13.5,12.6,29.95,West,264,0.0,0.0,96,0.00,CLR,,0.00,WeatherDisplay:10.37,2013-02-04 06:22:00,
2013-02-04 00:23:00,13.5,12.6,29.95,West,264,0.0,0.0,96,0.00,CLR,,0.00,WeatherDisplay:10.37,2013-02-04 06:23:00,
2013-02-04 00:25:00,13.5,12.6,29.95,ESE,104,0.5,0.8,96,0.00,CLR,,0.00,WeatherDisplay:10.37,2013-02-04 06:25:00,
2013-02-04 00:27:00,13.6,12.7,29.95,East,88,0.9,3.5,96,0.00,CLR,,0.00,WeatherDisplay:10.37,2013-02-04 06:27:00,
2013-02-04 00:28:00,13.5,12.6,29.95,East,97,1.9,2.2,96,0.00,CLR,,0.00,WeatherDisplay:10.37,2013-02-04 06:28:00,
2013-02-04 00:30:00,13.3,12.4,29.95,ESE,112,2.0,3.5,96,0.00,CLR,,0.00,WeatherDisplay:10.37,2013-02-04 06:30:00,
2013-02-04 00:32:00,13.5,12.6,29.95,ENE,75,0.0,1.1,96,0.00,CLR,,0.00,WeatherDisplay:10.37,2013-02-04 06:32:00,
2013-02-04 00:33:00,13.5,12.6,29.95,ENE,75,0.0,0.0,96,0.00,CLR,,0.00,WeatherDisplay:10.37,2013-02-04 06:33:00,
2013-02-04 00:35:00,13.6,12.7,29.95,ENE,71,0.1,1.1,96,0.00,CLR,,0.00,WeatherDisplay:10.37,2013-02-04 06:35:00,
2013-02-04 00:36:00,13.6,12.7,29.95,ENE,71,0.0,1.1,96,0.00,CLR,,0.00,WeatherDisplay:10.37,2013-02-04 06:36:00,
2013-02-04 00:37:00,13.5,12.6,29.95,East,80,0.7,1.1,96,0.00,CLR,,0.00,WeatherDisplay:10.37,2013-02-04 06:37:00,
2013-02-04 00:39:00,13.5,12.6,29.94,ENE,71,0.2,1.1,96,0.00,CLR,,0.00,WeatherDisplay:10.37,2013-02-04 06:39:00,
2013-02-04 00:41:00,13.5,12.6,29.94,ENE,71,0.0,0.0,96,0.00,CLR,,0.00,WeatherDisplay:10.37,2013-02-04 06:41:00,
2013-02-04 00:43:00,13.5,12.6,29.94,ENE,71,0.0,0.0,96,0.00,CLR,,0.00,WeatherDisplay:10.37,2013-02-04 06:43:00,
2013-02-04 00:44:00,13.5,12.6,29.94,ENE,71,0.0,0.0,96,0.00,CLR,,0.00,WeatherDisplay:10.37,2013-02-04 06:44:00,
2013-02-04 00:46:00,13.4,12.5,29.94,ENE,71,0.0,0.0,96,0.00,CLR,,0.00,WeatherDisplay:10.37,2013-02-04 06:46:00,
2013-02-04 00:48:00,13.5,12.6,29.94,ENE,71,0.0,0.0,96,0.00,CLR,,0.00,WeatherDisplay:10.37,2013-02-04 06:48:00,
2013-02-04 00:49:00,13.5,12.6,29.94,ENE,71,0.0,0.0,96,0.00,CLR,,0.00,WeatherDisplay:10.37,2013-02-04 06:49:00,
2013-02-04 00:51:00,13.4,12.5,29.94,ENE,71,0.0,0.0,96,0.00,CLR,,0.00,WeatherDisplay:10.37,2013-02-04 06:51:00,
2013-02-04 00:53:00,13.5,12.6,29.94,ENE,71,0.0,0.0,96,0.00,CLR,,0.00,WeatherDisplay:10.37,2013-02-04 06:53:00,
2013-02-04 00:54:00,13.5,12.6,29.94,ENE,71,0.0,0.0,96,0.00,CLR,,0.00,WeatherDisplay:10.37,2013-02-04 06:54:00,
2013-02-04 00:56:00,13.5,12.6,29.94,ENE,71,0.0,0.0,96,0.00,CLR,,0.00,WeatherDisplay:10.37,2013-02-04 06:56:00,
2013-02-04 00:58:00,13.5,12.6,29.93,ENE,71,0.0,0.0,96,0.00,CLR,,0.00,WeatherDisplay:10.37,2013-02-04 06:58:00,
2013-02-04 00:59:00,13.5,12.6,29.93,ENE,71,0.0,0.0,96,0.00,CLR,,0.00,WeatherDisplay:10.37,2013-02-04 06:59:00,
2013-02-04 01:01:00,13.6,12.7,29.93,ENE,71,0.0,0.0,96,0.00,CLR,,0.00,WeatherDisplay:10.37,2013-02-04 07:01:00,
2013-02-04 01:03:00,13.4,12.5,29.94,ENE,71,0.0,0.0,96,0.00,CLR,,0.00,WeatherDisplay:10.37,2013-02-04 07:03:00,
2013-02-04 01:04:00,13.4,12.5,29.94,ENE,71,0.0,0.0,96,0.00,CLR,,0.00,WeatherDisplay:10.37,2013-02-04 07:04:00,
2013-02-04 01:06:00,13.6,12.7,29.94,ENE,71,0.0,0.0,96,0.00,CLR,,0.00,WeatherDisplay:10.37,2013-02-04 07:06:00,
2013-02-04 01:08:00,13.4,12.5,29.94,ENE,71,0.0,0.0,96,0.00,CLR,,0.00,WeatherDisplay:10.37,2013-02-04 07:08:00,
2013-02-04 01:10:00,13.5,12.6,29.94,ENE,71,0.0,0.0,96,0.00,CLR,,0.00,WeatherDisplay:10.37,2013-02-04 07:10:00,
2013-02-04 01:11:00,13.4,12.5,29.94,ENE,71,0.0,0.0,96,0.00,CLR,,0.00,WeatherDisplay:10.37,2013-02-04 07:11:00,
2013-02-04 01:14:00,13.6,12.7,29.94,ENE,71,0.0,0.0,96,0.00,CLR,,0.00,WeatherDisplay:10.37,2013-02-04 07:14:00,
2013-02-04 01:15:00,13.5,12.6,29.94,ENE,71,0.0,0.0,96,0.00,CLR,,0.00,WeatherDisplay:10.37,2013-02-04 07:15:00,
2013-02-04 01:16:00,13.4,12.5,29.94,ENE,71,0.0,0.0,96,0.00,CLR,,0.00,WeatherDisplay:10.37,2013-02-04 07:16:00,
2013-02-04 01:19:00,13.4,12.5,29.93,ENE,71,0.0,0.0,96,0.00,CLR,,0.00,WeatherDisplay:10.37,2013-02-04 07:19:00,
2013-02-04 01:20:00,13.5,12.6,29.93,ENE,71,0.0,0.0,96,0.00,CLR,,0.00,WeatherDisplay:10.37,2013-02-04 07:20:00,
2013-02-04 01:21:00,13.4,12.5,29.93,ENE,71,0.0,0.0,96,0.00,CLR,,0.00,WeatherDisplay:10.37,2013-02-04 07:21:00,
2013-02-04 01:22:00,13.5,12.6,29.93,ENE,71,0.0,0.0,96,0.00,CLR,,0.00,WeatherDisplay:10.37,2013-02-04 07:22:00,
2013-02-04 01:24:00,13.5,12.6,29.93,ENE,71,0.0,0.0,96,0.00,CLR,,0.00,WeatherDisplay:10.37,2013-02-04 07:24:00,
2013-02-04 01:25:00,13.4,12.5,29.93,ENE,71,0.0,0.0,96,0.00,CLR,,0.00,WeatherDisplay:10.37,2013-02-04 07:25:00,
2013-02-04 01:26:00,13.6,12.7,29.93,ENE,71,0.0,0.0,96,0.00,CLR,,0.00,WeatherDisplay:10.37,2013-02-04 07:26:00,
2013-02-04 01:27:00,13.3,12.4,29.93,ENE,71,0.0,0.0,96,0.00,CLR,,0.00,WeatherDisplay:10.37,2013-02-04 07:27:00,
2013-02-04 01:29:00,13.4,12.5,29.93,ENE,71,0.0,0.0,96,0.00,CLR,,0.00,WeatherDisplay:10.37,2013-02-04 07:29:00,
2013-02-04 01:30:00,13.5,12.6,29.92,ENE,71,0.0,0.0,96,0.00,CLR,,0.00,WeatherDisplay:10.37,2013-02-04 07:30:00,
2013-02-04 01:31:00,13.5,12.6,29.92,ENE,71,0.0,0.0,96,0.00,CLR,,0.00,WeatherDisplay:10.37,2013-02-04 07:31:00,
2013-02-04 01:32:00,13.6,12.7,29.92,ENE,71,0.0,0.0,96,0.00,CLR,,0.00,WeatherDisplay:10.37,2013-02-04 07:32:00,
2013-02-04 01:34:00,13.5,12.6,29.92,ENE,71,0.0,0.0,96,0.00,CLR,,0.00,WeatherDisplay:10.37,2013-02-04 07:34:00,
2013-02-04 01:36:00,13.5,12.6,29.92,ENE,71,0.0,0.0,96,0.00,CLR,,0.00,WeatherDisplay:10.37,2013-02-04 07:36:00,
2013-02-04 01:37:00,13.4,12.5,29.92,ENE,71,0.0,0.0,96,0.00,CLR,,0.00,WeatherDisplay:10.37,2013-02-04 07:37:00,
2013-02-04 01:40:00,13.3,12.4,29.92,ESE,110,0.2,1.1,96,0.00,CLR,,0.00,WeatherDisplay:10.37,2013-02-04 07:40:00,
2013-02-04 01:41:00,13.3,12.4,29.92,ESE,110,0.0,0.0,96,0.00,CLR,,0.00,WeatherDisplay:10.37,2013-02-04 07:41:00,
2013-02-04 01:42:00,13.5,12.6,29.92,ENE,58,0.6,2.3,96,0.00,CLR,,0.00,WeatherDisplay:10.37,2013-02-04 07:42:00,
2013-02-04 01:45:00,13.5,12.6,29.92,East,82,1.9,3.5,96,0.00,CLR,,0.00,WeatherDisplay:10.37,2013-02-04 07:45:00,
2013-02-04 01:46:00,13.4,12.5,29.92,ENE,78,2.4,3.5,96,0.00,CLR,,0.00,WeatherDisplay:10.37,2013-02-04 07:46:00,
2013-02-04 01:47:00,13.5,12.6,29.92,East,79,0.1,3.5,96,0.00,CLR,,0.00,WeatherDisplay:10.37,2013-02-04 07:47:00,
2013-02-04 01:50:00,13.4,12.5,29.92,ENE,64,2.0,4.6,96,0.00,CLR,,0.00,WeatherDisplay:10.37,2013-02-04 07:50:00,
2013-02-04 01:51:00,13.4,12.5,29.92,NNE,21,1.7,2.3,96,0.00,CLR,,0.00,WeatherDisplay:10.37,2013-02-04 07:51:00,
2013-02-04 01:52:00,13.5,12.6,29.92,NE,51,0.9,2.3,96,0.00,CLR,,0.00,WeatherDisplay:10.37,2013-02-04 07:52:00,
2013-02-04 01:55:00,13.5,12.6,29.92,ESE,112,2.6,5.8,96,0.00,CLR,,0.00,WeatherDisplay:10.37,2013-02-04 07:55:00,
2013-02-04 01:56:00,13.3,12.4,29.92,ENE,73,1.2,3.5,96,0.00,CLR,,0.00,WeatherDisplay:10.37,2013-02-04 07:56:00,
2013-02-04 01:57:00,13.4,12.5,29.92,ENE,66,2.2,3.5,96,0.00,CLR,,0.00,WeatherDisplay:10.37,2013-02-04 07:57:00,
2013-02-04 02:00:00,13.3,12.4,29.92,NE,45,1.3,3.5,96,0.00,CLR,,0.00,WeatherDisplay:10.37,2013-02-04 08:00:00,
2013-02-04 02:01:00,13.5,12.6,29.92,NE,52,0.3,1.1,96,0.00,CLR,,0.00,WeatherDisplay:10.37,2013-02-04 08:01:00,
2013-02-04 02:03:00,13.4,12.5,29.92,NNE,31,0.3,2.5,96,0.00,CLR,,0.00,WeatherDisplay:10.37,2013-02-04 08:03:00,
2013-02-04 02:05:00,13.4,12.5,29.92,NE,41,0.0,4.6,96,0.00,CLR,,0.00,WeatherDisplay:10.37,2013-02-04 08:05:00,
2013-02-04 02:06:00,13.3,12.4,29.92,NE,41,0.1,0.5,96,0.00,CLR,,0.00,WeatherDisplay:10.37,2013-02-04 08:06:00,
2013-02-04 02:07:00,13.4,12.5,29.92,NE,41,0.1,0.0,96,0.00,CLR,,0.00,WeatherDisplay:10.37,2013-02-04 08:07:00,
2013-02-04 02:08:00,13.3,12.4,29.92,NE,41,4.0,4.6,96,0.00,CLR,,0.00,WeatherDisplay:10.37,2013-02-04 08:08:00,
2013-02-04 02:10:00,13.3,12.4,29.91,North,11,2.6,5.8,96,0.00,CLR,,0.00,WeatherDisplay:10.37,2013-02-04 08:10:00,
2013-02-04 02:11:00,13.2,12.3,29.92,North,11,0.0,1.1,96,0.00,CLR,,0.00,WeatherDisplay:10.37,2013-02-04 08:11:00,
2013-02-04 02:12:00,13.4,12.5,29.92,North,11,0.0,1.1,96,0.00,CLR,,0.00,WeatherDisplay:10.37,2013-02-04 08:12:00,
2013-02-04 02:13:00,13.4,12.5,29.92,North,11,0.0,0.0,96,0.00,CLR,,0.00,WeatherDisplay:10.37,2013-02-04 08:13:00,
2013-02-04 02:15:00,13.4,12.5,29.92,ENE,78,2.1,3.5,96,0.00,CLR,,0.00,WeatherDisplay:10.37,2013-02-04 08:15:00,
2013-02-04 02:16:00,13.3,12.4,29.92,East,96,3.9,5.8,96,0.00,CLR,,0.00,WeatherDisplay:10.37,2013-02-04 08:16:00,
2013-02-04 02:17:00,13.4,12.5,29.92,ESE,112,3.4,5.8,96,0.00,CLR,,0.00,WeatherDisplay:10.37,2013-02-04 08:17:00,
2013-02-04 02:18:00,13.4,12.5,29.92,East,90,2.0,5.8,96,0.00,CLR,,0.00,WeatherDisplay:10.37,2013-02-04 08:18:00,
2013-02-04 02:21:00,13.3,12.4,29.92,ENE,65,1.2,3.5,96,0.00,CLR,,0.00,WeatherDisplay:10.37,2013-02-04 08:21:00,
2013-02-04 02:23:00,13.3,12.4,29.92,East,96,1.1,3.5,96,0.00,CLR,,0.00,WeatherDisplay:10.37,2013-02-04 08:23:00,
2013-02-04 02:26:00,13.4,12.5,29.91,East,79,3.2,5.8,96,0.00,CLR,,0.00,WeatherDisplay:10.37,2013-02-04 08:26:00,
2013-02-04 02:27:00,13.3,12.4,29.91,ENE,59,1.3,2.3,96,0.00,CLR,,0.00,WeatherDisplay:10.37,2013-02-04 08:27:00,
2013-02-04 02:28:00,13.3,12.4,29.91,ESE,117,1.5,2.3,96,0.00,CLR,,0.00,WeatherDisplay:10.37,2013-02-04 08:28:00,
2013-02-04 02:29:00,13.3,12.4,29.91,NNE,18,3.1,4.6,96,0.00,CLR,,0.00,WeatherDisplay:10.37,2013-02-04 08:29:00,
2013-02-04 02:31:00,13.3,12.4,29.91,ENE,73,1.2,2.3,96,0.00,CLR,,0.00,WeatherDisplay:10.37,2013-02-04 08:31:00,
2013-02-04 02:32:00,13.4,12.5,29.91,ENE,73,0.0,0.0,96,0.00,CLR,,0.00,WeatherDisplay:10.37,2013-02-04 08:32:00,
2013-02-04 02:33:00,13.3,12.4,29.91,ENE,73,0.0,0.0,96,0.00,CLR,,0.00,WeatherDisplay:10.37,2013-02-04 08:33:00,
2013-02-04 02:34:00,13.1,12.2,29.91,NE,51,2.7,4.6,96,0.00,CLR,,0.00,WeatherDisplay:10.37,2013-02-04 08:34:00,
2013-02-04 02:36:00,13.2,12.3,29.91,ENE,58,4.5,6.9,96,0.00,CLR,,0.00,WeatherDisplay:10.37,2013-02-04 08:36:00,
2013-02-04 02:37:00,13.3,12.4,29.91,ENE,75,4.2,8.1,96,0.00,CLR,,0.00,WeatherDisplay:10.37,2013-02-04 08:37:00,
2013-02-04 02:38:00,13.2,12.3,29.91,East,89,3.9,8.1,96,0.00,CLR,,0.00,WeatherDisplay:10.37,2013-02-04 08:38:00,
2013-02-04 02:39:00,13.3,12.4,29.91,ENE,69,3.4,6.2,96,0.00,CLR,,0.00,WeatherDisplay:10.37,2013-02-04 08:39:00,
2013-02-04 02:41:00,13.3,12.4,29.91,ENE,72,0.4,4.6,96,0.00,CLR,,0.00,WeatherDisplay:10.37,2013-02-04 08:41:00,
2013-02-04 02:43:00,13.2,12.3,29.91,ENE,72,3.1,4.6,96,0.00,CLR,,0.00,WeatherDisplay:10.37,2013-02-04 08:43:00,
2013-02-04 02:44:00,13.3,12.4,29.91,NNE,27,2.0,3.5,96,0.00,CLR,,0.00,WeatherDisplay:10.37,2013-02-04 08:44:00,
2013-02-04 02:46:00,13.2,12.3,29.91,ENE,72,2.5,5.5,96,0.00,CLR,,0.00,WeatherDisplay:10.37,2013-02-04 08:46:00,
2013-02-04 02:48:00,13.2,12.3,29.91,ENE,76,4.2,5.8,96,0.00,CLR,,0.00,WeatherDisplay:10.37,2013-02-04 08:48:00,
2013-02-04 02:49:00,13.1,12.2,29.91,NE,52,1.7,3.5,96,0.00,CLR,,0.00,WeatherDisplay:10.37,2013-02-04 08:49:00,
2013-02-04 02:52:00,13.0,12.1,29.91,ENE,75,2.0,3.5,96,0.00,CLR,,0.00,WeatherDisplay:10.37,2013-02-04 08:52:00,
2013-02-04 02:53:00,13.0,12.1,29.91,East,83,1.7,4.1,96,0.00,CLR,,0.00,WeatherDisplay:10.37,2013-02-04 08:53:00,
2013-02-04 02:55:00,13.0,12.1,29.91,East,90,5.7,8.1,96,0.00,CLR,,0.00,WeatherDisplay:10.37,2013-02-04 08:55:00,
2013-02-04 02:57:00,12.9,12.0,29.91,East,88,3.5,6.9,96,0.00,CLR,,0.00,WeatherDisplay:10.37,2013-02-04 08:57:00,
2013-02-04 02:58:00,12.9,12.0,29.91,ENE,64,2.1,4.6,96,0.00,CLR,,0.00,WeatherDisplay:10.37,2013-02-04 08:58:00,
2013-02-04 03:00:00,12.8,11.9,29.91,East,82,4.0,6.9,96,0.00,CLR,,0.00,WeatherDisplay:10.37,2013-02-04 09:00:00,
2013-02-04 03:02:00,12.9,12.0,29.91,East,82,2.2,4.6,96,0.00,CLR,,0.00,WeatherDisplay:10.37,2013-02-04 09:02:00,
2013-02-04 03:03:00,12.6,11.7,29.90,ENE,69,1.0,2.3,96,0.00,CLR,,0.00,WeatherDisplay:10.37,2013-02-04 09:03:00,
2013-02-04 03:05:00,12.6,11.7,29.90,East,99,2.8,4.9,96,0.00,CLR,,0.00,WeatherDisplay:10.37,2013-02-04 09:05:00,
2013-02-04 03:07:00,12.6,11.7,29.90,East,100,3.7,5.8,96,0.00,CLR,,0.00,WeatherDisplay:10.37,2013-02-04 09:07:00,
2013-02-04 03:08:00,12.7,11.8,29.90,NE,34,2.1,6.9,96,0.00,CLR,,0.00,WeatherDisplay:10.37,2013-02-04 09:08:00,
2013-02-04 03:10:00,12.6,11.7,29.90,ENE,75,0.9,2.3,96,0.00,CLR,,0.00,WeatherDisplay:10.37,2013-02-04 09:10:00,
2013-02-04 03:12:00,12.6,11.7,29.90,East,86,3.5,4.6,96,0.00,CLR,,0.00,WeatherDisplay:10.37,2013-02-04 09:12:00,
2013-02-04 03:13:00,12.4,11.5,29.91,ENE,73,2.7,4.6,96,0.00,CLR,,0.00,WeatherDisplay:10.37,2013-02-04 09:13:00,
2013-02-04 03:15:00,12.5,11.6,29.91,ENE,76,2.5,5.8,96,0.00,CLR,,0.00,WeatherDisplay:10.37,2013-02-04 09:15:00,
2013-02-04 03:17:00,12.6,11.7,29.90,NNE,31,1.3,3.2,96,0.00,CLR,,0.00,WeatherDisplay:10.37,2013-02-04 09:17:00,
2013-02-04 03:18:00,12.4,11.5,29.91,NE,55,3.2,4.6,96,0.00,CLR,,0.00,WeatherDisplay:10.37,2013-02-04 09:18:00,
2013-02-04 03:20:00,12.5,11.6,29.90,NE,51,2.6,3.5,96,0.00,CLR,,0.00,WeatherDisplay:10.37,2013-02-04 09:20:00,
2013-02-04 03:22:00,12.5,11.6,29.90,East,88,3.2,5.8,96,0.00,CLR,,0.00,WeatherDisplay:10.37,2013-02-04 09:22:00,
2013-02-04 03:24:00,12.4,11.5,29.90,ESE,119,3.1,4.9,96,0.00,CLR,,0.00,WeatherDisplay:10.37,2013-02-04 09:24:00,
2013-02-04 03:25:00,12.5,11.6,29.90,East,97,4.1,8.1,96,0.00,CLR,,0.00,WeatherDisplay:10.37,2013-02-04 09:25:00,
2013-02-04 03:27:00,12.3,11.4,29.90,ESE,116,3.3,5.8,96,0.00,CLR,,0.00,WeatherDisplay:10.37,2013-02-04 09:27:00,
2013-02-04 03:29:00,12.4,11.5,29.90,SE,138,2.4,4.6,96,0.00,CLR,,0.00,WeatherDisplay:10.37,2013-02-04 09:29:00,
2013-02-04 03:30:00,12.2,11.3,29.90,ESE,107,3.3,6.4,96,0.00,CLR,,0.00,WeatherDisplay:10.37,2013-02-04 09:30:00,
2013-02-04 03:33:00,12.3,11.4,29.90,NNE,24,4.6,6.9,96,0.00,CLR,,0.00,WeatherDisplay:10.37,2013-02-04 09:33:00,
2013-02-04 03:34:00,12.3,11.4,29.90,ESE,103,4.4,5.8,96,0.00,CLR,,0.00,WeatherDisplay:10.37,2013-02-04 09:34:00,
2013-02-04 03:35:00,12.3,11.4,29.90,East,79,4.5,5.8,96,0.00,CLR,,0.00,WeatherDisplay:10.37,2013-02-04 09:35:00,
2013-02-04 03:38:00,12.3,11.4,29.90,North,3,4.4,6.7,96,0.00,CLR,,0.00,WeatherDisplay:10.37,2013-02-04 09:38:00,
2013-02-04 03:39:00,12.3,11.4,29.90,ENE,78,3.3,6.9,96,0.00,CLR,,0.00,WeatherDisplay:10.37,2013-02-04 09:39:00,
2013-02-04 03:40:00,12.2,11.3,29.90,ENE,58,2.0,4.6,96,0.00,CLR,,0.00,WeatherDisplay:10.37,2013-02-04 09:40:00,
2013-02-04 03:43:00,12.2,11.3,29.90,East,99,3.3,5.8,96,0.00,CLR,,0.00,WeatherDisplay:10.37,2013-02-04 09:43:00,
2013-02-04 03:44:00,12.2,11.3,29.90,NE,40,2.7,5.8,96,0.00,CLR,,0.00,WeatherDisplay:10.37,2013-02-04 09:44:00,
2013-02-04 03:45:00,12.2,11.3,29.90,ESE,102,2.1,5.0,96,0.00,CLR,,0.00,WeatherDisplay:10.37,2013-02-04 09:45:00,
2013-02-04 03:49:00,12.2,11.3,29.90,ESE,102,3.3,3.5,96,0.00,CLR,,0.00,WeatherDisplay:10.37,2013-02-04 09:49:00,
2013-02-04 03:50:00,12.2,11.3,29.90,ESE,121,3.2,5.8,96,0.00,CLR,,0.00,WeatherDisplay:10.37,2013-02-04 09:50:00,
2013-02-04 03:54:00,12.1,11.2,29.90,ENE,73,2.1,3.5,96,0.00,CLR,,0.00,WeatherDisplay:10.37,2013-02-04 09:54:00,
2013-02-04 03:55:00,12.1,11.2,29.90,NE,35,2.2,3.5,96,0.00,CLR,,0.00,WeatherDisplay:10.37,2013-02-04 09:55:00,
2013-02-04 03:59:00,12.1,11.2,29.90,NE,37,0.7,2.3,96,0.00,CLR,,0.00,WeatherDisplay:10.37,2013-02-04 09:59:00,
2013-02-04 04:00:00,12.1,11.2,29.90,NE,37,0.0,2.3,96,0.00,CLR,,0.00,WeatherDisplay:10.37,2013-02-04 10:00:00,
2013-02-04 04:04:00,12.1,11.2,29.90,ENE,69,0.7,4.6,96,0.00,CLR,,0.00,WeatherDisplay:10.37,2013-02-04 10:04:00,
2013-02-04 04:05:00,12.1,11.2,29.90,NE,56,0.8,4.5,96,0.00,CLR,,0.00,WeatherDisplay:10.37,2013-02-04 10:05:00,
2013-02-04 04:06:00,12.0,11.1,29.90,NE,44,2.5,4.6,96,0.00,CLR,,0.00,WeatherDisplay:10.37,2013-02-04 10:06:00,
2013-02-04 04:09:00,12.1,11.2,29.90,East,95,5.2,8.1,96,0.00,CLR,,0.00,WeatherDisplay:10.37,2013-02-04 10:09:00,
2013-02-04 04:10:00,12.1,11.2,29.90,ENE,73,4.3,8.1,96,0.00,CLR,,0.00,WeatherDisplay:10.37,2013-02-04 10:10:00,
2013-02-04 04:11:00,12.0,11.1,29.90,NE,49,1.6,4.6,96,0.00,CLR,,0.00,WeatherDisplay:10.37,2013-02-04 10:11:00,
2013-02-04 04:14:00,12.1,11.2,29.90,ENE,72,3.4,5.8,96,0.00,CLR,,0.00,WeatherDisplay:10.37,2013-02-04 10:14:00,
2013-02-04 04:15:00,12.1,11.2,29.90,East,99,2.6,4.6,96,0.00,CLR,,0.00,WeatherDisplay:10.37,2013-02-04 10:15:00,
2013-02-04 04:16:00,12.1,11.2,29.90,ENE,62,2.0,3.5,96,0.00,CLR,,0.00,WeatherDisplay:10.37,2013-02-04 10:16:00,
2013-02-04 04:19:00,12.0,11.1,29.90,East,100,2.5,3.9,96,0.00,CLR,,0.00,WeatherDisplay:10.37,2013-02-04 10:19:00,
2013-02-04 04:20:00,12.1,11.2,29.90,East,86,3.9,4.6,96,0.00,CLR,,0.00,WeatherDisplay:10.37,2013-02-04 10:20:00,
2013-02-04 04:21:00,11.9,11.0,29.90,East,95,3.3,6.9,96,0.00,CLR,,0.00,WeatherDisplay:10.37,2013-02-04 10:21:00,
2013-02-04 04:24:00,12.1,11.2,29.90,ENE,58,2.7,3.5,96,0.00,CLR,,0.00,WeatherDisplay:10.37,2013-02-04 10:24:00,
2013-02-04 04:25:00,12.1,11.2,29.90,ENE,58,1.0,3.5,96,0.00,CLR,,0.00,WeatherDisplay:10.37,2013-02-04 10:25:00,
2013-02-04 04:26:00,12.1,11.2,29.90,ESE,107,0.3,2.3,96,0.00,CLR,,0.00,WeatherDisplay:10.37,2013-02-04 10:26:00,
2013-02-04 04:29:00,12.1,11.2,29.90,SE,124,2.5,4.6,96,0.00,CLR,,0.00,WeatherDisplay:10.37,2013-02-04 10:29:00,
2013-02-04 04:31:00,12.0,11.1,29.90,ESE,113,4.4,6.9,96,0.00,CLR,,0.00,WeatherDisplay:10.37,2013-02-04 10:31:00,
2013-02-04 04:35:00,12.0,11.1,29.90,East,92,3.8,5.8,96,0.00,CLR,,0.00,WeatherDisplay:10.37,2013-02-04 10:35:00,
2013-02-04 04:36:00,12.1,11.2,29.90,ENE,65,0.6,3.5,96,0.00,CLR,,0.00,WeatherDisplay:10.37,2013-02-04 10:36:00,
2013-02-04 04:40:00,12.1,11.2,29.90,NE,47,3.0,5.8,96,0.00,CLR,,0.00,WeatherDisplay:10.37,2013-02-04 10:40:00,
2013-02-04 04:41:00,11.9,11.0,29.91,ENE,66,3.2,5.1,96,0.00,CLR,,0.00,WeatherDisplay:10.37,2013-02-04 10:41:00,
2013-02-04 04:45:00,12.2,11.3,29.91,NE,40,2.8,5.8,96,0.00,CLR,,0.00,WeatherDisplay:10.37,2013-02-04 10:45:00,
2013-02-04 04:46:00,11.9,11.0,29.90,ENE,69,1.1,3.5,96,0.00,CLR,,0.00,WeatherDisplay:10.37,2013-02-04 10:46:00,
2013-02-04 04:50:00,12.0,11.1,29.90,NE,41,2.8,8.1,96,0.00,CLR,,0.00,WeatherDisplay:10.37,2013-02-04 10:50:00,
2013-02-04 04:51:00,12.1,11.2,29.90,NNE,32,3.9,4.3,96,0.00,CLR,,0.00,WeatherDisplay:10.37,2013-02-04 10:51:00,
2013-02-04 04:52:00,12.1,11.2,29.90,NE,37,3.8,6.9,96,0.00,CLR,,0.00,WeatherDisplay:10.37,2013-02-04 10:52:00,
2013-02-04 04:55:00,12.0,11.1,29.91,East,80,4.0,4.6,96,0.00,CLR,,0.00,WeatherDisplay:10.37,2013-02-04 10:55:00,
2013-02-04 04:56:00,12.1,11.2,29.90,East,93,3.0,8.1,96,0.00,CLR,,0.00,WeatherDisplay:10.37,2013-02-04 10:56:00,
2013-02-04 04:57:00,12.0,11.1,29.91,North,4,3.2,8.1,96,0.00,CLR,,0.00,WeatherDisplay:10.37,2013-02-04 10:57:00,
2013-02-04 05:01:00,12.1,11.2,29.91,NE,44,4.6,6.1,96,0.00,CLR,,0.00,WeatherDisplay:10.37,2013-02-04 11:01:00,
2013-02-04 05:02:00,12.1,11.2,29.91,NNE,32,3.3,5.8,96,0.00,CLR,,0.00,WeatherDisplay:10.37,2013-02-04 11:02:00,
2013-02-04 05:06:00,11.9,11.0,29.90,NNE,21,4.8,8.1,96,0.00,CLR,,0.00,WeatherDisplay:10.37,2013-02-04 11:06:00,
2013-02-04 05:07:00,12.2,11.3,29.90,ENE,59,4.4,6.9,96,0.00,CLR,,0.00,WeatherDisplay:10.37,2013-02-04 11:07:00,
2013-02-04 05:11:00,12.0,11.1,29.90,NE,38,3.5,6.9,96,0.00,CLR,,0.00,WeatherDisplay:10.37,2013-02-04 11:11:00,
2013-02-04 05:12:00,12.1,11.2,29.90,East,100,3.8,6.9,96,0.00,CLR,,0.00,WeatherDisplay:10.37,2013-02-04 11:12:00,
2013-02-04 05:16:00,12.0,11.1,29.90,SE,133,4.1,7.8,96,0.00,CLR,,0.00,WeatherDisplay:10.37,2013-02-04 11:16:00,
2013-02-04 05:17:00,12.0,11.1,29.90,East,88,3.7,8.1,96,0.00,CLR,,0.00,WeatherDisplay:10.37,2013-02-04 11:17:00,
2013-02-04 05:21:00,12.0,11.1,29.90,ESE,106,4.4,6.9,96,0.00,CLR,,0.00,WeatherDisplay:10.37,2013-02-04 11:21:00,
2013-02-04 05:22:00,12.0,11.1,29.90,SE,138,3.5,5.8,96,0.00,CLR,,0.00,WeatherDisplay:10.37,2013-02-04 11:22:00,
2013-02-04 05:26:00,11.9,11.0,29.90,East,82,2.9,4.6,96,0.00,CLR,,0.00,WeatherDisplay:10.37,2013-02-04 11:26:00,
2013-02-04 05:27:00,12.1,11.2,29.90,ENE,72,1.4,3.5,96,0.00,CLR,,0.00,WeatherDisplay:10.37,2013-02-04 11:27:00,
2013-02-04 05:28:00,12.0,11.1,29.90,NE,37,1.9,2.5,96,0.00,CLR,,0.00,WeatherDisplay:10.37,2013-02-04 11:28:00,
2013-02-04 05:31:00,12.0,11.1,29.90,NE,48,2.9,4.6,96,0.00,CLR,,0.00,WeatherDisplay:10.37,2013-02-04 11:31:00,
2013-02-04 05:32:00,12.0,11.1,29.90,NNE,18,4.0,5.8,96,0.00,CLR,,0.00,WeatherDisplay:10.37,2013-02-04 11:32:00,
2013-02-04 05:33:00,12.1,11.2,29.90,East,95,3.0,5.8,96,0.00,CLR,,0.00,WeatherDisplay:10.37,2013-02-04 11:33:00,
2013-02-04 05:36:00,12.0,11.1,29.90,NE,49,2.6,5.8,96,0.00,CLR,,0.00,WeatherDisplay:10.37,2013-02-04 11:36:00,
2013-02-04 05:37:00,12.0,11.1,29.90,NE,45,5.9,9.2,96,0.00,CLR,,0.00,WeatherDisplay:10.37,2013-02-04 11:37:00,
2013-02-04 05:38:00,11.9,11.0,29.90,ENE,69,4.8,8.1,96,0.00,CLR,,0.00,WeatherDisplay:10.37,2013-02-04 11:38:00,
2013-02-04 05:41:00,12.0,11.1,29.90,NE,54,5.0,8.3,96,0.00,CLR,,0.00,WeatherDisplay:10.37,2013-02-04 11:41:00,
2013-02-04 05:42:00,12.0,11.1,29.90,NNE,27,5.7,9.2,96,0.00,CLR,,0.00,WeatherDisplay:10.37,2013-02-04 11:42:00,
2013-02-04 05:43:00,12.0,11.1,29.90,NE,45,5.2,8.1,96,0.00,CLR,,0.00,WeatherDisplay:10.37,2013-02-04 11:43:00,
2013-02-04 05:46:00,12.0,11.1,29.90,NE,37,4.1,5.8,96,0.00,CLR,,0.00,WeatherDisplay:10.37,2013-02-04 11:46:00,
2013-02-04 05:47:00,12.1,11.2,29.90,ENE,61,3.7,7.1,96,0.00,CLR,,0.00,WeatherDisplay:10.37,2013-02-04 11:47:00,
2013-02-04 05:48:00,12.0,11.1,29.90,East,82,5.0,8.1,96,0.00,CLR,,0.00,WeatherDisplay:10.37,2013-02-04 11:48:00,
2013-02-04 05:51:00,11.9,11.0,29.90,NE,37,4.5,9.2,96,0.00,CLR,,0.00,WeatherDisplay:10.37,2013-02-04 11:51:00,
2013-02-04 05:52:00,11.8,10.9,29.90,ENE,59,5.8,9.2,96,0.00,CLR,,0.00,WeatherDisplay:10.37,2013-02-04 11:52:00,
2013-02-04 05:53:00,11.9,11.0,29.91,ENE,65,4.6,6.9,96,0.00,CLR,,0.00,WeatherDisplay:10.37,2013-02-04 11:53:00,
2013-02-04 05:56:00,11.7,10.8,29.91,NE,47,3.5,5.8,96,0.00,CLR,,0.00,WeatherDisplay:10.37,2013-02-04 11:56:00,
2013-02-04 05:57:00,11.8,10.9,29.91,NE,49,3.9,6.9,96,0.00,CLR,,0.00,WeatherDisplay:10.37,2013-02-04 11:57:00,
2013-02-04 05:58:00,11.8,10.9,29.91,ENE,59,4.2,5.8,96,0.00,CLR,,0.00,WeatherDisplay:10.37,2013-02-04 11:58:00,
2013-02-04 06:01:00,11.8,10.9,29.91,NE,38,5.8,6.9,96,0.00,CLR,,0.00,WeatherDisplay:10.37,2013-02-04 12:01:00,
2013-02-04 06:02:00,11.8,10.9,29.91,NE,37,3.9,9.2,96,0.00,CLR,,0.00,WeatherDisplay:10.37,2013-02-04 12:02:00,
2013-02-04 06:03:00,11.7,10.8,29.91,ENE,76,5.0,5.8,96,0.00,CLR,,0.00,WeatherDisplay:10.37,2013-02-04 12:03:00,
2013-02-04 06:06:00,11.8,10.9,29.91,ENE,72,6.5,11.8,96,0.00,CLR,,0.00,WeatherDisplay:10.37,2013-02-04 12:06:00,
2013-02-04 06:07:00,11.7,10.8,29.91,ENE,61,7.1,11.5,96,0.00,CLR,,0.00,WeatherDisplay:10.37,2013-02-04 12:07:00,
2013-02-04 06:08:00,11.7,10.8,29.91,ENE,69,6.1,9.2,96,0.00,CLR,,0.00,WeatherDisplay:10.37,2013-02-04 12:08:00,
2013-02-04 06:12:00,11.6,10.7,29.91,NE,40,5.5,10.4,96,0.00,CLR,,0.00,WeatherDisplay:10.37,2013-02-04 12:12:00,
2013-02-04 06:13:00,11.6,10.7,29.91,NNE,27,4.2,8.1,96,0.00,CLR,,0.00,WeatherDisplay:10.37,2013-02-04 12:13:00,
2013-02-04 06:17:00,11.7,10.8,29.91,ENE,62,5.8,8.1,96,0.00,CLR,,0.00,WeatherDisplay:10.37,2013-02-04 12:17:00,
2013-02-04 06:18:00,11.6,10.7,29.91,ENE,71,4.6,8.1,96,0.00,CLR,,0.00,WeatherDisplay:10.37,2013-02-04 12:18:00,
2013-02-04 06:22:00,11.6,10.7,29.91,ENE,65,3.2,4.6,96,0.00,CLR,,0.00,WeatherDisplay:10.37,2013-02-04 12:22:00,
2013-02-04 06:23:00,11.6,10.7,29.91,East,95,5.0,6.9,96,0.00,CLR,,0.00,WeatherDisplay:10.37,2013-02-04 12:23:00,
2013-02-04 06:27:00,11.6,10.7,29.91,NE,38,6.1,9.2,96,0.00,CLR,,0.00,WeatherDisplay:10.37,2013-02-04 12:27:00,
2013-02-04 06:28:00,11.4,10.5,29.91,NE,41,5.1,9.2,96,0.00,CLR,,0.00,WeatherDisplay:10.37,2013-02-04 12:28:00,
2013-02-04 06:29:00,11.5,10.6,29.91,NE,47,5.8,9.6,96,0.00,CLR,,0.00,WeatherDisplay:10.37,2013-02-04 12:29:00,
2013-02-04 06:32:00,11.5,10.6,29.91,North,10,7.1,9.2,96,0.00,CLR,,0.00,WeatherDisplay:10.37,2013-02-04 12:32:00,
2013-02-04 06:33:00,11.5,10.6,29.91,NE,52,5.5,11.8,96,0.00,CLR,,0.00,WeatherDisplay:10.37,2013-02-04 12:33:00,
2013-02-04 06:34:00,11.5,10.6,29.91,ESE,103,6.2,11.5,96,0.00,CLR,,0.00,WeatherDisplay:10.37,2013-02-04 12:34:00,
2013-02-04 06:37:00,11.4,10.5,29.91,NNE,20,4.0,8.1,96,0.00,CLR,,0.00,WeatherDisplay:10.37,2013-02-04 12:37:00,
2013-02-04 06:38:00,11.4,10.5,29.91,East,89,5.7,8.1,96,0.00,CLR,,0.00,WeatherDisplay:10.37,2013-02-04 12:38:00,
2013-02-04 06:39:00,11.4,10.5,29.91,East,93,3.9,9.2,96,0.00,CLR,,0.00,WeatherDisplay:10.37,2013-02-04 12:39:00,
2013-02-04 06:42:00,11.3,10.4,29.91,East,100,4.2,6.9,96,0.00,CLR,,0.00,WeatherDisplay:10.37,2013-02-04 12:42:00,
2013-02-04 06:43:00,11.3,10.4,29.91,North,8,3.4,8.1,96,0.00,CLR,,0.00,WeatherDisplay:10.37,2013-02-04 12:43:00,
2013-02-04 06:44:00,11.2,10.3,29.91,NE,47,4.5,6.6,96,0.00,CLR,,0.00,WeatherDisplay:10.37,2013-02-04 12:44:00,
2013-02-04 06:47:00,11.3,10.4,29.91,East,82,3.6,4.6,96,0.00,CLR,,0.00,WeatherDisplay:10.37,2013-02-04 12:47:00,
2013-02-04 06:48:00,11.2,10.3,29.91,ENE,59,5.3,9.2,96,0.00,CLR,,0.00,WeatherDisplay:10.37,2013-02-04 12:48:00,
2013-02-04 06:49:00,11.2,10.3,29.91,NNE,27,5.6,9.2,96,0.00,CLR,,0.00,WeatherDisplay:10.37,2013-02-04 12:49:00,
2013-02-04 06:52:00,11.4,10.5,29.91,NE,44,4.1,4.6,96,0.00,CLR,,0.00,WeatherDisplay:10.37,2013-02-04 12:52:00,
2013-02-04 06:54:00,11.4,10.5,29.91,NE,49,5.1,6.9,96,0.00,CLR,,0.00,WeatherDisplay:10.37,2013-02-04 12:54:00,
2013-02-04 06:57:00,11.2,10.3,29.91,NE,49,5.9,8.1,96,0.00,CLR,,0.00,WeatherDisplay:10.37,2013-02-04 12:57:00,
2013-02-04 06:59:00,11.3,10.4,29.91,NE,41,5.9,9.2,96,0.00,CLR,,0.00,WeatherDisplay:10.37,2013-02-04 12:59:00,
2013-02-04 07:02:00,11.2,10.3,29.91,NNE,25,6.1,9.2,96,0.00,CLR,,0.00,WeatherDisplay:10.37,2013-02-04 13:02:00,
2013-02-04 07:04:00,11.2,10.3,29.91,NE,40,4.8,8.1,96,0.00,CLR,,0.00,WeatherDisplay:10.37,2013-02-04 13:04:00,
2013-02-04 07:07:00,11.1,10.2,29.91,East,90,4.0,5.8,96,0.00,CLR,,0.00,WeatherDisplay:10.37,2013-02-04 13:07:00,
2013-02-04 07:09:00,11.1,10.2,29.91,East,80,4.1,5.8,96,0.00,CLR,,0.00,WeatherDisplay:10.37,2013-02-04 13:09:00,
2013-02-04 07:12:00,11.0,10.1,29.91,ENE,71,3.6,5.8,96,0.00,CLR,,0.00,WeatherDisplay:10.37,2013-02-04 13:12:00,
2013-02-04 07:14:00,11.0,10.1,29.91,NE,40,6.0,6.9,96,0.00,CLR,,0.00,WeatherDisplay:10.37,2013-02-04 13:14:00,
2013-02-04 07:17:00,11.0,10.1,29.91,ENE,62,6.9,9.2,96,0.00,CLR,,0.00,WeatherDisplay:10.37,2013-02-04 13:17:00,
2013-02-04 07:19:00,10.9,10.0,29.91,NE,37,7.0,11.5,96,0.00,CLR,,0.00,WeatherDisplay:10.37,2013-02-04 13:19:00,
2013-02-04 07:22:00,10.9,10.0,29.91,East,80,6.0,11.5,96,0.00,CLR,,0.00,WeatherDisplay:10.37,2013-02-04 13:22:00,
2013-02-04 07:24:00,10.9,10.0,29.91,NE,42,3.5,6.9,96,0.00,CLR,,0.00,WeatherDisplay:10.37,2013-02-04 13:24:00,
2013-02-04 07:28:00,10.8,9.9,29.91,North,360,4.8,7.0,96,0.00,CLR,,0.00,WeatherDisplay:10.37,2013-02-04 13:28:00,
2013-02-04 07:29:00,10.8,9.9,29.91,NE,42,5.0,8.1,96,0.00,CLR,,0.00,WeatherDisplay:10.37,2013-02-04 13:29:00,
2013-02-04 07:30:00,10.8,9.9,29.91,ENE,65,6.9,10.4,96,0.00,CLR,,0.00,WeatherDisplay:10.37,2013-02-04 13:30:00,
2013-02-04 07:33:00,10.9,10.0,29.91,NNE,27,4.5,6.9,96,0.00,CLR,,0.00,WeatherDisplay:10.37,2013-02-04 13:33:00,
2013-02-04 07:34:00,10.9,10.0,29.91,East,88,4.7,5.8,96,0.00,CLR,,0.00,WeatherDisplay:10.37,2013-02-04 13:34:00,
2013-02-04 07:35:00,10.7,9.8,29.91,NE,42,4.2,6.9,96,0.00,CLR,,0.00,WeatherDisplay:10.37,2013-02-04 13:35:00,
2013-02-04 07:38:00,10.8,9.9,29.91,NNE,27,4.5,5.8,96,0.00,CLR,,0.00,WeatherDisplay:10.37,2013-02-04 13:38:00,
2013-02-04 07:39:00,10.8,9.9,29.91,NE,54,6.0,8.1,96,0.00,CLR,,0.00,WeatherDisplay:10.37,2013-02-04 13:39:00,
2013-02-04 07:40:00,10.8,9.9,29.92,NE,35,6.1,6.9,96,0.00,CLR,,0.00,WeatherDisplay:10.37,2013-02-04 13:40:00,
2013-02-04 07:43:00,10.8,9.9,29.92,East,92,3.6,5.8,96,0.00,CLR,,0.00,WeatherDisplay:10.37,2013-02-04 13:43:00,
2013-02-04 07:44:00,10.9,10.0,29.92,North,8,2.9,5.8,96,0.00,CLR,,0.00,WeatherDisplay:10.37,2013-02-04 13:44:00,
2013-02-04 07:45:00,10.9,10.0,29.92,NE,41,4.9,6.8,96,0.00,CLR,,0.00,WeatherDisplay:10.37,2013-02-04 13:45:00,
2013-02-04 07:46:00,10.9,10.0,29.92,NNE,28,5.1,8.1,96,0.00,CLR,,0.00,WeatherDisplay:10.37,2013-02-04 13:46:00,
2013-02-04 07:48:00,10.9,10.0,29.92,NE,49,5.6,8.1,96,0.00,CLR,,0.00,WeatherDisplay:10.37,2013-02-04 13:48:00,
2013-02-04 07:49:00,10.8,9.9,29.92,NE,38,5.2,8.1,96,0.00,CLR,,0.00,WeatherDisplay:10.37,2013-02-04 13:49:00,
2013-02-04 07:50:00,10.8,9.9,29.92,NNE,18,4.5,8.1,96,0.00,CLR,,0.00,WeatherDisplay:10.37,2013-02-04 13:50:00,
2013-02-04 07:51:00,11.0,10.1,29.92,NE,51,3.6,6.2,96,0.00,CLR,,0.00,WeatherDisplay:10.37,2013-02-04 13:51:00,
2013-02-04 07:54:00,11.0,10.1,29.92,NE,54,4.0,6.9,96,0.00,CLR,,0.00,WeatherDisplay:10.37,2013-02-04 13:54:00,
2013-02-04 07:55:00,10.9,10.0,29.92,NE,37,4.7,5.8,96,0.00,CLR,,0.00,WeatherDisplay:10.37,2013-02-04 13:55:00,
2013-02-04 07:56:00,11.0,10.1,29.92,NE,45,3.2,6.9,96,0.00,CLR,,0.00,WeatherDisplay:10.37,2013-02-04 13:56:00,
2013-02-04 07:59:00,11.0,10.1,29.92,North,4,3.7,5.9,96,0.00,CLR,,0.00,WeatherDisplay:10.37,2013-02-04 13:59:00,
2013-02-04 08:00:00,10.9,10.0,29.92,ENE,68,3.5,5.8,96,0.00,CLR,,0.00,WeatherDisplay:10.37,2013-02-04 14:00:00,
2013-02-04 08:01:00,11.0,10.1,29.92,East,97,2.0,4.6,96,0.00,CLR,,0.00,WeatherDisplay:10.37,2013-02-04 14:01:00,
2013-02-04 08:04:00,11.1,10.2,29.92,NE,47,6.0,8.1,96,0.00,CLR,,0.00,WeatherDisplay:10.37,2013-02-04 14:04:00,
2013-02-04 08:05:00,11.2,10.3,29.92,NE,42,5.3,9.2,96,0.00,CLR,,0.00,WeatherDisplay:10.37,2013-02-04 14:05:00,
2013-02-04 08:06:00,11.1,10.2,29.92,North,349,5.9,6.0,96,0.00,CLR,,0.00,WeatherDisplay:10.37,2013-02-04 14:06:00,
2013-02-04 08:09:00,11.1,10.2,29.92,ENE,68,5.7,8.1,96,0.00,CLR,,0.00,WeatherDisplay:10.37,2013-02-04 14:09:00,
2013-02-04 08:10:00,11.1,10.2,29.92,NNE,23,4.8,8.1,96,0.00,CLR,,0.00,WeatherDisplay:10.37,2013-02-04 14:10:00,
2013-02-04 08:11:00,11.3,10.4,29.92,NE,37,3.0,5.8,96,0.00,CLR,,0.00,WeatherDisplay:10.37,2013-02-04 14:11:00,
2013-02-04 08:15:00,11.3,10.4,29.92,ENE,62,4.0,8.1,96,0.00,CLR,,0.00,WeatherDisplay:10.37,2013-02-04 14:15:00,
2013-02-04 08:16:00,11.2,10.3,29.92,NNE,32,2.7,4.9,96,0.00,CLR,,0.00,WeatherDisplay:10.37,2013-02-04 14:16:00,
2013-02-04 08:20:00,11.3,10.4,29.92,North,360,4.9,6.9,96,0.00,CLR,,0.00,WeatherDisplay:10.37,2013-02-04 14:20:00,
2013-02-04 08:21:00,11.2,10.3,29.92,ENE,72,6.2,8.1,96,0.00,CLR,,0.00,WeatherDisplay:10.37,2013-02-04 14:21:00,
2013-02-04 08:25:00,11.3,10.1,29.92,ENE,59,5.3,7.2,95,0.00,CLR,,0.00,WeatherDisplay:10.37,2013-02-04 14:25:00,
2013-02-04 08:26:00,11.3,10.1,29.92,ESE,110,4.2,6.9,95,0.00,CLR,,0.00,WeatherDisplay:10.37,2013-02-04 14:26:00,
2013-02-04 08:30:00,11.6,10.4,29.92,NNE,25,3.7,5.8,95,0.00,CLR,,0.00,WeatherDisplay:10.37,2013-02-04 14:30:00,
2013-02-04 08:31:00,11.5,10.3,29.92,ENE,71,4.4,6.9,95,0.00,CLR,,0.00,WeatherDisplay:10.37,2013-02-04 14:31:00,
2013-02-04 08:35:00,11.7,10.5,29.92,ENE,76,4.4,6.4,95,0.00,CLR,,0.00,WeatherDisplay:10.37,2013-02-04 14:35:00,
2013-02-04 08:36:00,11.7,10.5,29.92,ENE,59,5.5,8.1,95,0.00,CLR,,0.00,WeatherDisplay:10.37,2013-02-04 14:36:00,
2013-02-04 08:37:00,11.5,10.3,29.92,ENE,69,3.7,6.9,95,0.00,CLR,,0.00,WeatherDisplay:10.37,2013-02-04 14:37:00,
2013-02-04 08:40:00,11.8,10.6,29.92,ENE,68,5.8,9.2,95,0.00,CLR,,0.00,WeatherDisplay:10.37,2013-02-04 14:40:00,
2013-02-04 08:41:00,11.7,10.5,29.92,ESE,113,4.5,9.2,95,0.00,CLR,,0.00,WeatherDisplay:10.37,2013-02-04 14:41:00,
2013-02-04 08:42:00,11.8,10.6,29.92,NE,45,2.5,4.6,95,0.00,CLR,,0.00,WeatherDisplay:10.37,2013-02-04 14:42:00,
2013-02-04 08:46:00,12.0,10.8,29.92,NNE,16,5.1,8.1,95,0.00,CLR,,0.00,WeatherDisplay:10.37,2013-02-04 14:46:00,
2013-02-04 08:47:00,11.9,10.7,29.92,ENE,58,7.5,9.2,95,0.00,CLR,,0.00,WeatherDisplay:10.37,2013-02-04 14:47:00,
2013-02-04 08:51:00,12.1,10.9,29.92,ENE,71,3.0,6.9,95,0.00,CLR,,0.00,WeatherDisplay:10.37,2013-02-04 14:51:00,
2013-02-04 08:52:00,11.8,10.6,29.92,ENE,69,3.3,4.6,95,0.00,CLR,,0.00,WeatherDisplay:10.37,2013-02-04 14:52:00,
2013-02-04 08:56:00,12.2,11.0,29.92,NNW,346,4.9,8.5,95,0.00,CLR,,0.00,WeatherDisplay:10.37,2013-02-04 14:56:00,
2013-02-04 08:57:00,12.2,11.0,29.92,NE,56,4.2,5.8,95,0.00,CLR,,0.00,WeatherDisplay:10.37,2013-02-04 14:57:00,
2013-02-04 09:01:00,12.2,11.0,29.92,ENE,59,4.9,8.1,95,0.00,CLR,,0.00,WeatherDisplay:10.37,2013-02-04 15:01:00,
2013-02-04 09:02:00,12.3,10.9,29.92,NE,51,6.7,8.1,94,0.00,CLR,,0.00,WeatherDisplay:10.37,2013-02-04 15:02:00,
2013-02-04 09:06:00,12.5,11.1,29.92,ENE,68,4.6,5.8,94,0.00,CLR,,0.00,WeatherDisplay:10.37,2013-02-04 15:06:00,
2013-02-04 09:08:00,12.3,10.9,29.92,ENE,72,5.9,8.1,94,0.00,CLR,,0.00,WeatherDisplay:10.37,2013-02-04 15:08:00,
2013-02-04 09:11:00,12.5,11.1,29.92,ENE,58,2.2,6.9,94,0.00,CLR,,0.00,WeatherDisplay:10.37,2013-02-04 15:11:00,
2013-02-04 09:12:00,12.3,10.9,29.92,ENE,58,0.4,4.6,94,0.00,CLR,,0.00,WeatherDisplay:10.37,2013-02-04 15:12:00,
2013-02-04 09:13:00,12.4,11.0,29.92,ENE,58,0.0,0.0,94,0.00,CLR,,0.00,WeatherDisplay:10.37,2013-02-04 15:13:00,
2013-02-04 09:16:00,12.6,11.2,29.92,NE,38,4.5,6.9,94,0.00,CLR,,0.00,WeatherDisplay:10.37,2013-02-04 15:16:00,
2013-02-04 09:17:00,12.6,11.2,29.92,ENE,71,4.0,8.1,94,0.00,CLR,,0.00,WeatherDisplay:10.37,2013-02-04 15:17:00,
2013-02-04 09:18:00,12.6,11.2,29.92,NNE,18,4.1,5.8,94,0.00,CLR,,0.00,WeatherDisplay:10.37,2013-02-04 15:18:00,
2013-02-04 09:21:00,12.7,11.3,29.92,NE,34,4.9,8.1,94,0.00,CLR,,0.00,WeatherDisplay:10.37,2013-02-04 15:21:00,
2013-02-04 09:22:00,12.7,11.3,29.92,NE,49,5.2,8.1,94,0.00,CLR,,0.00,WeatherDisplay:10.37,2013-02-04 15:22:00,
2013-02-04 09:23:00,12.6,11.2,29.92,North,360,4.0,5.8,94,0.00,CLR,,0.00,WeatherDisplay:10.37,2013-02-04 15:23:00,
2013-02-04 09:26:00,12.7,11.3,29.92,NNE,21,4.8,8.1,94,0.00,CLR,,0.00,WeatherDisplay:10.37,2013-02-04 15:26:00,
2013-02-04 09:27:00,12.7,11.3,29.92,NNE,32,5.4,8.1,94,0.00,CLR,,0.00,WeatherDisplay:10.37,2013-02-04 15:27:00,
2013-02-04 09:28:00,12.8,11.2,29.92,North,359,4.8,9.2,93,0.00,CLR,,0.00,WeatherDisplay:10.37,2013-02-04 15:28:00,
2013-02-04 09:32:00,12.8,11.2,29.92,North,3,2.3,4.4,93,0.00,CLR,,0.00,WeatherDisplay:10.37,2013-02-04 15:32:00,
2013-02-04 09:33:00,12.7,11.1,29.92,NE,44,4.7,8.1,93,0.00,CLR,,0.00,WeatherDisplay:10.37,2013-02-04 15:33:00,
2013-02-04 09:37:00,12.9,11.3,29.93,NE,42,5.2,9.2,93,0.00,CLR,,0.00,WeatherDisplay:10.37,2013-02-04 15:37:00,
2013-02-04 09:38:00,12.9,11.3,29.93,ENE,72,5.2,6.9,93,0.00,CLR,,0.00,WeatherDisplay:10.37,2013-02-04 15:38:00,
2013-02-04 09:42:00,12.9,11.3,29.93,NNW,344,1.0,4.6,93,0.00,CLR,,0.00,WeatherDisplay:10.37,2013-02-04 15:42:00,
2013-02-04 09:44:00,12.8,11.2,29.93,NE,47,6.2,9.2,93,0.00,CLR,,0.00,WeatherDisplay:10.37,2013-02-04 15:44:00,
2013-02-04 09:47:00,13.0,11.4,29.93,NNE,13,3.8,6.9,93,0.00,CLR,,0.00,WeatherDisplay:10.37,2013-02-04 15:47:00,
2013-02-04 09:49:00,13.1,11.5,29.93,NE,37,3.1,6.9,93,0.00,CLR,,0.00,WeatherDisplay:10.37,2013-02-04 15:49:00,
2013-02-04 09:52:00,13.2,11.6,29.93,NNE,23,3.2,8.1,93,0.00,CLR,,0.00,WeatherDisplay:10.37,2013-02-04 15:52:00,
2013-02-04 09:55:00,13.2,11.3,29.93,ENE,71,5.2,8.1,92,0.00,CLR,,0.00,WeatherDisplay:10.37,2013-02-04 15:55:00,
2013-02-04 09:57:00,13.3,11.4,29.93,NNE,20,1.4,5.8,92,0.00,CLR,,0.00,WeatherDisplay:10.37,2013-02-04 15:57:00,
2013-02-04 10:00:00,13.4,11.5,29.93,NNE,31,5.8,10.4,92,0.00,CLR,,0.00,WeatherDisplay:10.37,2013-02-04 16:00:00,
2013-02-04 10:02:00,13.4,11.5,29.93,North,11,5.3,9.2,92,0.00,CLR,,0.00,WeatherDisplay:10.37,2013-02-04 16:02:00,
2013-02-04 10:03:00,13.5,11.6,29.93,ENE,64,3.2,6.9,92,0.00,CLR,,0.00,WeatherDisplay:10.37,2013-02-04 16:03:00,
2013-02-04 10:05:00,13.5,11.6,29.93,ENE,59,6.3,8.1,92,0.00,CLR,,0.00,WeatherDisplay:10.37,2013-02-04 16:05:00,
2013-02-04 10:07:00,13.5,11.6,29.93,ENE,61,3.5,7.4,92,0.00,CLR,,0.00,WeatherDisplay:10.37,2013-02-04 16:07:00,
2013-02-04 10:08:00,13.5,11.6,29.93,NE,52,4.0,5.8,92,0.00,CLR,,0.00,WeatherDisplay:10.37,2013-02-04 16:08:00,
2013-02-04 10:10:00,13.5,11.6,29.93,North,360,6.2,9.2,92,0.00,CLR,,0.00,WeatherDisplay:10.37,2013-02-04 16:10:00,
2013-02-04 10:12:00,13.7,11.8,29.93,NNE,27,3.5,8.1,92,0.00,CLR,,0.00,WeatherDisplay:10.37,2013-02-04 16:12:00,
2013-02-04 10:13:00,13.5,11.6,29.93,NNE,32,4.0,8.1,92,0.00,CLR,,0.00,WeatherDisplay:10.37,2013-02-04 16:13:00,
2013-02-04 10:15:00,13.7,11.8,29.93,NNW,343,0.0,3.5,92,0.00,CLR,,0.00,WeatherDisplay:10.37,2013-02-04 16:15:00,
2013-02-04 10:18:00,14.0,12.1,29.93,NNE,24,6.7,10.4,92,0.00,CLR,,0.00,WeatherDisplay:10.37,2013-02-04 16:18:00,
2013-02-04 10:20:00,14.1,12.2,29.93,NE,45,3.1,6.9,92,0.00,CLR,,0.00,WeatherDisplay:10.37,2013-02-04 16:20:00,
2013-02-04 10:23:00,14.1,12.0,29.93,NNE,25,3.4,9.2,91,0.00,CLR,,0.00,WeatherDisplay:10.37,2013-02-04 16:23:00,
2013-02-04 10:25:00,14.3,12.2,29.93,NNE,32,5.5,8.1,91,0.00,CLR,,0.00,WeatherDisplay:10.37,2013-02-04 16:25:00,
2013-02-04 10:28:00,14.3,12.2,29.93,East,95,4.1,6.9,91,0.00,CLR,,0.00,WeatherDisplay:10.37,2013-02-04 16:28:00,
2013-02-04 10:30:00,14.5,12.4,29.93,East,97,5.0,6.9,91,0.00,CLR,,0.00,WeatherDisplay:10.37,2013-02-04 16:30:00,
2013-02-04 10:33:00,14.5,12.4,29.93,ENE,72,3.8,8.1,91,0.00,CLR,,0.00,WeatherDisplay:10.37,2013-02-04 16:33:00,
2013-02-04 10:35:00,14.6,12.2,29.93,ENE,66,6.0,8.1,90,0.00,CLR,,0.00,WeatherDisplay:10.37,2013-02-04 16:35:00,
2013-02-04 10:38:00,14.6,12.2,29.93,NE,48,3.7,8.1,90,0.00,CLR,,0.00,WeatherDisplay:10.37,2013-02-04 16:38:00,
2013-02-04 10:39:00,14.7,12.3,29.93,NE,47,3.5,6.1,90,0.00,CLR,,0.00,WeatherDisplay:10.37,2013-02-04 16:39:00,
2013-02-04 10:40:00,14.7,12.3,29.93,ENE,66,5.1,7.9,90,0.00,CLR,,0.00,WeatherDisplay:10.37,2013-02-04 16:40:00,
2013-02-04 10:43:00,14.8,12.4,29.93,NE,49,5.7,8.1,90,0.00,CLR,,0.00,WeatherDisplay:10.37,2013-02-04 16:43:00,
2013-02-04 10:44:00,14.8,12.4,29.93,NNE,31,3.7,10.4,90,0.00,CLR,,0.00,WeatherDisplay:10.37,2013-02-04 16:44:00,
2013-02-04 10:46:00,14.9,12.5,29.93,NE,41,5.0,6.8,90,0.00,CLR,,0.00,WeatherDisplay:10.37,2013-02-04 16:46:00,
2013-02-04 10:48:00,15.0,12.6,29.94,North,349,4.2,6.9,90,0.00,CLR,,0.00,WeatherDisplay:10.37,2013-02-04 16:48:00,
2013-02-04 10:49:00,15.0,12.6,29.94,North,6,3.8,6.9,90,0.00,CLR,,0.00,WeatherDisplay:10.37,2013-02-04 16:49:00,
2013-02-04 10:51:00,15.0,12.3,29.94,NNE,20,5.2,6.9,89,0.00,CLR,,0.00,WeatherDisplay:10.37,2013-02-04 16:51:00,
2013-02-04 10:54:00,15.1,12.4,29.94,East,83,4.0,6.9,89,0.00,CLR,,0.00,WeatherDisplay:10.37,2013-02-04 16:54:00,
2013-02-04 10:56:00,15.0,12.3,29.94,NNE,13,5.3,9.2,89,0.00,CLR,,0.00,WeatherDisplay:10.37,2013-02-04 16:56:00,
2013-02-04 10:59:00,15.0,12.1,29.94,NNE,14,5.9,9.2,88,0.00,CLR,,0.00,WeatherDisplay:10.37,2013-02-04 16:59:00,
2013-02-04 11:01:00,15.0,12.1,29.94,NE,41,3.1,5.8,88,0.00,CLR,,0.00,WeatherDisplay:10.37,2013-02-04 17:01:00,
2013-02-04 11:04:00,14.9,12.0,29.94,NW,323,4.7,9.2,88,0.00,CLR,,0.00,WeatherDisplay:10.37,2013-02-04 17:04:00,
2013-02-04 11:06:00,14.9,12.0,29.94,NE,42,5.7,8.1,88,0.00,CLR,,0.00,WeatherDisplay:10.37,2013-02-04 17:06:00,
2013-02-04 11:09:00,15.0,12.1,29.94,NNW,339,5.5,6.9,88,0.00,CLR,,0.00,WeatherDisplay:10.37,2013-02-04 17:09:00,
2013-02-04 11:11:00,15.1,12.2,29.94,ENE,69,6.4,11.5,88,0.00,CLR,,0.00,WeatherDisplay:10.37,2013-02-04 17:11:00,
2013-02-04 11:14:00,15.1,12.2,29.94,NNE,25,6.5,10.4,88,0.00,CLR,,0.00,WeatherDisplay:10.37,2013-02-04 17:14:00,
2013-02-04 11:17:00,15.0,12.1,29.94,NNE,24,3.4,6.9,88,0.00,CLR,,0.00,WeatherDisplay:10.37,2013-02-04 17:17:00,
2013-02-04 11:19:00,15.1,12.2,29.94,NNW,346,5.4,7.5,88,0.00,CLR,,0.00,WeatherDisplay:10.37,2013-02-04 17:19:00,
2013-02-04 11:20:00,15.1,12.2,29.94,North,11,5.5,8.1,88,0.00,CLR,,0.00,WeatherDisplay:10.37,2013-02-04 17:20:00,
2013-02-04 11:22:00,15.3,12.1,29.94,NNE,30,6.4,9.2,87,0.00,CLR,,0.00,WeatherDisplay:10.37,2013-02-04 17:22:00,
2013-02-04 11:24:00,15.0,11.8,29.94,NE,48,6.0,8.1,87,0.00,CLR,,0.00,WeatherDisplay:10.37,2013-02-04 17:24:00,
2013-02-04 11:25:00,15.2,12.0,29.94,NNE,25,5.4,8.1,87,0.00,CLR,,0.00,WeatherDisplay:10.37,2013-02-04 17:25:00,
2013-02-04 11:27:00,15.4,12.2,29.94,North,7,5.3,6.9,87,0.00,CLR,,0.00,WeatherDisplay:10.37,2013-02-04 17:27:00,
2013-02-04 11:29:00,15.3,11.9,29.94,ENE,58,6.0,8.1,86,0.00,CLR,,0.00,WeatherDisplay:10.37,2013-02-04 17:29:00,
2013-02-04 11:30:00,15.3,11.9,29.94,NE,47,5.9,8.1,86,0.00,CLR,,0.00,WeatherDisplay:10.37,2013-02-04 17:30:00,
2013-02-04 11:32:00,15.5,12.1,29.94,NE,34,6.0,8.8,86,0.00,CLR,,0.00,WeatherDisplay:10.37,2013-02-04 17:32:00,
2013-02-04 11:35:00,15.7,12.3,29.94,ENE,68,6.3,9.2,86,0.00,CLR,,0.00,WeatherDisplay:10.37,2013-02-04 17:35:00,
2013-02-04 11:37:00,15.8,12.4,29.94,NE,40,1.6,7.2,86,0.00,CLR,,0.00,WeatherDisplay:10.37,2013-02-04 17:37:00,
2013-02-04 11:40:00,15.9,12.5,29.94,NNE,23,5.9,9.2,86,0.00,CLR,,0.00,WeatherDisplay:10.37,2013-02-04 17:40:00,
2013-02-04 11:41:00,16.0,12.6,29.94,NNW,344,6.3,9.2,86,0.00,CLR,,0.00,WeatherDisplay:10.37,2013-02-04 17:41:00,
2013-02-04 11:42:00,16.1,12.4,29.94,NNE,30,6.0,10.4,85,0.00,CLR,,0.00,WeatherDisplay:10.37,2013-02-04 17:42:00,
2013-02-04 11:45:00,16.1,12.4,29.94,NNE,27,4.2,4.8,85,0.00,CLR,,0.00,WeatherDisplay:10.37,2013-02-04 17:45:00,
2013-02-04 11:46:00,16.2,12.5,29.94,NE,34,5.3,8.1,85,0.00,CLR,,0.00,WeatherDisplay:10.37,2013-02-04 17:46:00,
2013-02-04 11:47:00,16.3,12.6,29.94,NE,48,4.3,6.9,85,0.00,CLR,,0.00,WeatherDisplay:10.37,2013-02-04 17:47:00,
2013-02-04 11:50:00,16.4,12.7,29.94,NE,52,3.6,6.9,85,0.00,CLR,,0.00,WeatherDisplay:10.37,2013-02-04 17:50:00,
2013-02-04 11:51:00,16.5,12.8,29.94,NNE,21,5.0,6.9,85,0.00,CLR,,0.00,WeatherDisplay:10.37,2013-02-04 17:51:00,
2013-02-04 11:52:00,16.5,12.5,29.94,North,349,6.6,8.1,84,0.00,CLR,,0.00,WeatherDisplay:10.37,2013-02-04 17:52:00,
2013-02-04 11:55:00,16.5,12.2,29.94,NNW,330,6.0,9.2,83,0.00,CLR,,0.00,WeatherDisplay:10.37,2013-02-04 17:55:00,
2013-02-04 11:56:00,16.6,12.3,29.94,NNE,24,6.6,9.2,83,0.00,CLR,,0.00,WeatherDisplay:10.37,2013-02-04 17:56:00,
2013-02-04 11:57:00,16.5,12.2,29.94,NNE,18,5.2,9.2,83,0.00,CLR,,0.00,WeatherDisplay:10.37,2013-02-04 17:57:00,
2013-02-04 12:00:00,16.4,12.1,29.94,NE,38,4.4,6.9,83,0.00,CLR,,0.00,WeatherDisplay:10.37,2013-02-04 18:00:00,
2013-02-04 12:01:00,16.5,12.2,29.94,NNE,23,3.9,7.6,83,0.00,CLR,,0.00,WeatherDisplay:10.37,2013-02-04 18:01:00,
2013-02-04 12:02:00,16.4,12.1,29.94,ENE,65,5.2,8.1,83,0.00,CLR,,0.00,WeatherDisplay:10.37,2013-02-04 18:02:00,
2013-02-04 12:03:00,16.6,12.3,29.94,NE,49,4.0,5.9,83,0.00,CLR,,0.00,WeatherDisplay:10.37,2013-02-04 18:03:00,
2013-02-04 12:05:00,16.7,12.4,29.94,East,80,1.0,3.5,83,0.00,CLR,,0.00,WeatherDisplay:10.37,2013-02-04 18:05:00,
2013-02-04 12:06:00,16.7,12.4,29.94,NNE,25,2.1,4.7,83,0.00,CLR,,0.00,WeatherDisplay:10.37,2013-02-04 18:06:00,
2013-02-04 12:07:00,16.8,12.5,29.94,NE,49,1.3,6.9,83,0.00,CLR,,0.00,WeatherDisplay:10.37,2013-02-04 18:07:00,
2013-02-04 12:08:00,16.9,12.6,29.94,NE,34,2.8,4.7,83,0.00,CLR,,0.00,WeatherDisplay:10.37,2013-02-04 18:08:00,
2013-02-04 12:10:00,17.0,12.7,29.94,North,356,6.0,8.1,83,0.00,CLR,,0.00,WeatherDisplay:10.37,2013-02-04 18:10:00,
2013-02-04 12:11:00,17.0,12.7,29.94,NNE,30,5.8,8.1,83,0.00,CLR,,0.00,WeatherDisplay:10.37,2013-02-04 18:11:00,
2013-02-04 12:12:00,17.0,12.5,29.94,North,360,5.9,10.4,82,0.00,CLR,,0.00,WeatherDisplay:10.37,2013-02-04 18:12:00,
2013-02-04 12:13:00,16.9,12.4,29.94,NNE,24,4.2,8.1,82,0.00,CLR,,0.00,WeatherDisplay:10.37,2013-02-04 18:13:00,
2013-02-04 12:16:00,17.0,12.5,29.94,North,3,7.9,9.2,82,0.00,CLR,,0.00,WeatherDisplay:10.37,2013-02-04 18:16:00,
2013-02-04 12:17:00,16.9,12.1,29.94,North,360,5.5,10.4,81,0.00,CLR,,0.00,WeatherDisplay:10.37,2013-02-04 18:17:00,
2013-02-04 12:18:00,17.0,12.2,29.94,ENE,59,5.9,9.2,81,0.00,CLR,,0.00,WeatherDisplay:10.37,2013-02-04 18:18:00,
2013-02-04 12:21:00,16.8,12.3,29.94,NE,34,4.9,5.8,82,0.00,CLR,,0.00,WeatherDisplay:10.37,2013-02-04 18:21:00,
2013-02-04 12:22:00,16.8,12.3,29.94,NW,325,6.4,9.2,82,0.00,CLR,,0.00,WeatherDisplay:10.37,2013-02-04 18:22:00,
2013-02-04 12:23:00,16.8,12.3,29.94,NNE,30,4.3,8.1,82,0.00,CLR,,0.00,WeatherDisplay:10.37,2013-02-04 18:23:00,
2013-02-04 12:26:00,16.8,12.0,29.94,NNE,13,6.1,8.1,81,0.00,CLR,,0.00,WeatherDisplay:10.37,2013-02-04 18:26:00,
2013-02-04 12:28:00,16.6,11.8,29.94,North,360,5.2,9.2,81,0.00,CLR,,0.00,WeatherDisplay:10.37,2013-02-04 18:28:00,
2013-02-04 12:29:00,16.7,11.9,29.94,NE,42,5.7,8.5,81,0.00,CLR,,0.00,WeatherDisplay:10.37,2013-02-04 18:29:00,
2013-02-04 12:31:00,16.6,11.8,29.94,North,1,4.6,9.2,81,0.00,CLR,,0.00,WeatherDisplay:10.37,2013-02-04 18:31:00,
2013-02-04 12:33:00,16.6,11.8,29.94,NNW,337,6.2,8.1,81,0.00,CLR,,0.00,WeatherDisplay:10.37,2013-02-04 18:33:00,
2013-02-04 12:34:00,16.4,11.6,29.94,NNE,17,6.5,9.2,81,0.00,CLR,,0.00,WeatherDisplay:10.37,2013-02-04 18:34:00,
2013-02-04 12:36:00,16.4,11.6,29.94,NNE,21,2.6,5.8,81,0.00,CLR,,0.00,WeatherDisplay:10.37,2013-02-04 18:36:00,
2013-02-04 12:37:00,16.4,11.6,29.94,NNE,23,2.8,5.8,81,0.00,CLR,,0.00,WeatherDisplay:10.37,2013-02-04 18:37:00,
2013-02-04 12:38:00,16.5,11.7,29.94,NNE,21,5.4,8.1,81,0.00,CLR,,0.00,WeatherDisplay:10.37,2013-02-04 18:38:00,
2013-02-04 12:39:00,16.5,12.0,29.94,ESE,112,4.1,6.9,82,0.00,CLR,,0.00,WeatherDisplay:10.37,2013-02-04 18:39:00,
2013-02-04 12:41:00,16.6,12.1,29.94,North,4,3.6,4.6,82,0.00,CLR,,0.00,WeatherDisplay:10.37,2013-02-04 18:41:00,
2013-02-04 12:42:00,16.6,12.1,29.94,NE,34,3.3,4.6,82,0.00,CLR,,0.00,WeatherDisplay:10.37,2013-02-04 18:42:00,
2013-02-04 12:43:00,16.7,12.2,29.94,NNE,32,3.6,3.6,82,0.00,CLR,,0.00,WeatherDisplay:10.37,2013-02-04 18:43:00,
2013-02-04 12:44:00,16.6,12.1,29.94,NNW,333,4.5,6.9,82,0.00,CLR,,0.00,WeatherDisplay:10.37,2013-02-04 18:44:00,
2013-02-04 12:47:00,16.9,12.1,29.94,ENE,65,4.4,8.1,81,0.00,CLR,,0.00,WeatherDisplay:10.37,2013-02-04 18:47:00,
2013-02-04 12:48:00,17.0,12.2,29.95,NNE,24,6.2,8.1,81,0.00,CLR,,0.00,WeatherDisplay:10.37,2013-02-04 18:48:00,
2013-02-04 12:49:00,17.0,12.2,29.94,North,360,4.0,8.1,81,0.00,CLR,,0.00,WeatherDisplay:10.37,2013-02-04 18:49:00,
2013-02-04 12:52:00,17.1,12.3,29.94,NNE,18,2.7,4.6,81,0.00,CLR,,0.00,WeatherDisplay:10.37,2013-02-04 18:52:00,
2013-02-04 12:53:00,17.3,12.5,29.95,NNE,25,1.0,3.5,81,0.00,CLR,,0.00,WeatherDisplay:10.37,2013-02-04 18:53:00,
2013-02-04 12:54:00,17.1,12.3,29.94,North,357,0.6,5.5,81,0.00,CLR,,0.00,WeatherDisplay:10.37,2013-02-04 18:54:00,
2013-02-04 12:57:00,17.3,12.5,29.95,NNE,30,1.9,5.8,81,0.00,CLR,,0.00,WeatherDisplay:10.37,2013-02-04 18:57:00,
2013-02-04 12:58:00,17.3,12.5,29.94,NE,56,4.4,8.1,81,0.00,CLR,,0.00,WeatherDisplay:10.37,2013-02-04 18:58:00,
2013-02-04 12:59:00,17.4,12.6,29.95,NE,42,5.2,8.1,81,0.00,CLR,,0.00,WeatherDisplay:10.37,2013-02-04 18:59:00,
2013-02-04 13:02:00,17.5,12.4,29.94,NNE,24,6.9,9.2,80,0.00,CLR,,0.00,WeatherDisplay:10.37,2013-02-04 19:02:00,
2013-02-04 13:03:00,17.5,12.4,29.94,North,360,5.4,6.9,80,0.00,CLR,,0.00,WeatherDisplay:10.37,2013-02-04 19:03:00,
2013-02-04 13:04:00,17.5,12.4,29.94,North,360,5.1,6.9,80,0.00,CLR,,0.00,WeatherDisplay:10.37,2013-02-04 19:04:00,
2013-02-04 13:07:00,17.5,12.4,29.95,NE,37,4.5,6.9,80,0.00,CLR,,0.00,WeatherDisplay:10.37,2013-02-04 19:07:00,
2013-02-04 13:08:00,17.5,12.4,29.95,NE,34,4.6,5.8,80,0.00,CLR,,0.00,WeatherDisplay:10.37,2013-02-04 19:08:00,
2013-02-04 13:09:00,17.5,12.4,29.95,North,11,5.3,8.1,80,0.00,CLR,,0.00,WeatherDisplay:10.37,2013-02-04 19:09:00,
2013-02-04 13:12:00,17.5,12.4,29.94,NNE,18,4.7,9.2,80,0.00,CLR,,0.00,WeatherDisplay:10.37,2013-02-04 19:12:00,
2013-02-04 13:13:00,17.6,12.5,29.94,NW,316,4.8,8.1,80,0.00,CLR,,0.00,WeatherDisplay:10.37,2013-02-04 19:13:00,
2013-02-04 13:14:00,17.4,12.3,29.94,NE,51,4.1,8.1,80,0.00,CLR,,0.00,WeatherDisplay:10.37,2013-02-04 19:14:00,
2013-02-04 13:17:00,17.8,12.7,29.94,ENE,64,4.7,6.9,80,0.00,CLR,,0.00,WeatherDisplay:10.37,2013-02-04 19:17:00,
2013-02-04 13:18:00,17.8,12.7,29.94,NE,45,5.0,7.6,80,0.00,CLR,,0.00,WeatherDisplay:10.37,2013-02-04 19:18:00,
2013-02-04 13:19:00,17.9,12.8,29.94,NNE,18,4.3,8.1,80,0.00,CLR,,0.00,WeatherDisplay:10.37,2013-02-04 19:19:00,
2013-02-04 13:22:00,18.1,13.0,29.94,NE,40,4.4,6.9,80,0.00,CLR,,0.00,WeatherDisplay:10.37,2013-02-04 19:22:00,
2013-02-04 13:23:00,18.1,13.0,29.94,NE,47,4.2,6.9,80,0.00,CLR,,0.00,WeatherDisplay:10.37,2013-02-04 19:23:00,
2013-02-04 13:24:00,18.1,12.7,29.94,North,360,5.0,8.1,79,0.00,CLR,,0.00,WeatherDisplay:10.37,2013-02-04 19:24:00,
2013-02-04 13:28:00,18.3,12.9,29.94,North,350,4.0,6.9,79,0.00,CLR,,0.00,WeatherDisplay:10.37,2013-02-04 19:28:00,
2013-02-04 13:29:00,18.4,13.0,29.94,NE,41,3.8,6.9,79,0.00,CLR,,0.00,WeatherDisplay:10.37,2013-02-04 19:29:00,
2013-02-04 13:30:00,18.4,13.0,29.94,NNE,25,3.6,6.9,79,0.00,CLR,,0.00,WeatherDisplay:10.37,2013-02-04 19:30:00,
2013-02-04 13:33:00,18.7,13.3,29.94,North,349,5.9,7.9,79,0.00,CLR,,0.00,WeatherDisplay:10.37,2013-02-04 19:33:00,
2013-02-04 13:35:00,18.8,13.4,29.93,NNE,25,5.4,6.9,79,0.00,CLR,,0.00,WeatherDisplay:10.37,2013-02-04 19:35:00,
2013-02-04 13:38:00,18.9,13.2,29.93,North,354,3.8,6.9,78,0.00,CLR,,0.00,WeatherDisplay:10.37,2013-02-04 19:38:00,
2013-02-04 13:40:00,18.8,13.1,29.93,NNE,21,4.9,6.9,78,0.00,CLR,,0.00,WeatherDisplay:10.37,2013-02-04 19:40:00,
2013-02-04 13:43:00,18.9,13.2,29.93,North,360,2.8,4.6,78,0.00,CLR,,0.00,WeatherDisplay:10.37,2013-02-04 19:43:00,
2013-02-04 13:45:00,18.9,13.2,29.92,NNE,18,6.8,8.1,78,0.00,CLR,,0.00,WeatherDisplay:10.37,2013-02-04 19:45:00,
2013-02-04 13:48:00,19.2,13.5,29.91,ENE,72,2.5,5.8,78,0.00,CLR,,0.00,WeatherDisplay:10.37,2013-02-04 19:48:00,
2013-02-04 13:50:00,19.4,13.7,29.92,NNE,32,5.2,8.1,78,0.00,CLR,,0.00,WeatherDisplay:10.37,2013-02-04 19:50:00,
2013-02-04 13:53:00,19.9,14.1,29.91,NE,38,5.0,6.9,78,0.00,CLR,,0.00,WeatherDisplay:10.37,2013-02-04 19:53:00,
2013-02-04 13:54:00,19.9,14.1,29.92,NNW,344,4.7,6.9,78,0.00,CLR,,0.00,WeatherDisplay:10.37,2013-02-04 19:54:00,
2013-02-04 13:55:00,20.0,13.9,29.92,North,357,4.7,5.8,77,0.00,CLR,,0.00,WeatherDisplay:10.37,2013-02-04 19:55:00,
2013-02-04 13:59:00,20.2,13.8,29.91,SE,138,5.3,8.1,76,0.00,CLR,,0.00,WeatherDisplay:10.37,2013-02-04 19:59:00,
2013-02-04 14:00:00,20.2,13.5,29.91,NE,44,5.4,8.1,75,0.00,CLR,,0.00,WeatherDisplay:10.37,2013-02-04 20:00:00,
2013-02-04 14:04:00,20.4,13.7,29.91,ENE,65,3.8,9.2,75,0.00,CLR,,0.00,WeatherDisplay:10.37,2013-02-04 20:04:00,
2013-02-04 14:05:00,20.4,13.7,29.91,NE,55,3.3,5.8,75,0.00,CLR,,0.00,WeatherDisplay:10.37,2013-02-04 20:05:00,
2013-02-04 14:09:00,20.5,13.8,29.91,ENE,75,4.0,6.6,75,0.01,RA,,0.01,WeatherDisplay:10.37,2013-02-04 20:09:00,
2013-02-04 14:10:00,20.6,13.9,29.91,ESE,119,5.3,6.9,75,0.01,RA,,0.01,WeatherDisplay:10.37,2013-02-04 20:10:00,
2013-02-04 14:11:00,20.6,13.9,29.91,East,93,2.8,6.9,75,0.01,RA,,0.01,WeatherDisplay:10.37,2013-02-04 20:11:00,
2013-02-04 14:14:00,20.8,14.1,29.91,ESE,102,2.3,5.8,75,0.01,RA,,0.01,WeatherDisplay:10.37,2013-02-04 20:14:00,
2013-02-04 14:15:00,20.9,14.2,29.91,ESE,110,3.0,6.3,75,0.01,RA,,0.01,WeatherDisplay:10.37,2013-02-04 20:15:00,
2013-02-04 14:16:00,20.8,13.8,29.91,NE,41,4.9,6.9,74,0.01,RA,,0.01,WeatherDisplay:10.37,2013-02-04 20:16:00,
2013-02-04 14:19:00,21.0,14.0,29.91,ENE,76,1.4,6.1,74,0.01,,,0.02,WeatherDisplay:10.37,2013-02-04 20:19:00,
2013-02-04 14:20:00,20.9,13.9,29.91,ENE,76,4.8,6.9,74,0.02,RA,,0.02,WeatherDisplay:10.37,2013-02-04 20:20:00,
2013-02-04 14:21:00,20.9,13.9,29.91,NE,34,3.7,5.8,74,0.02,RA,,0.02,WeatherDisplay:10.37,2013-02-04 20:21:00,
2013-02-04 14:24:00,20.9,13.6,29.91,ENE,75,4.9,5.8,73,0.02,RA,,0.02,WeatherDisplay:10.37,2013-02-04 20:24:00,
2013-02-04 14:25:00,20.7,13.7,29.91,North,0,2.8,8.1,74,0.02,RA,,0.02,WeatherDisplay:10.37,2013-02-04 20:25:00,
2013-02-04 14:26:00,20.9,13.9,29.91,NE,48,2.8,4.6,74,0.02,RA,,0.02,WeatherDisplay:10.37,2013-02-04 20:26:00,
2013-02-04 14:29:00,20.8,13.8,29.91,ENE,72,0.6,4.6,74,0.02,RA,,0.02,WeatherDisplay:10.37,2013-02-04 20:29:00,
2013-02-04 14:30:00,20.8,13.8,29.91,NE,34,1.0,3.5,74,0.02,,,0.02,WeatherDisplay:10.37,2013-02-04 20:30:00,
2013-02-04 14:31:00,20.8,13.8,29.91,North,0,2.2,3.5,74,0.02,,,0.03,WeatherDisplay:10.37,2013-02-04 20:31:00,
2013-02-04 14:35:00,20.6,13.3,29.91,NE,54,4.1,8.1,73,0.03,RA,,0.03,WeatherDisplay:10.37,2013-02-04 20:35:00,
2013-02-04 14:36:00,20.6,13.3,29.91,NE,34,6.1,9.2,73,0.03,RA,,0.03,WeatherDisplay:10.37,2013-02-04 20:36:00,
2013-02-04 14:40:00,20.5,13.5,29.91,NE,37,4.6,6.9,74,0.03,RA,,0.03,WeatherDisplay:10.37,2013-02-04 20:40:00,
2013-02-04 14:41:00,20.5,13.5,29.91,North,8,3.4,5.8,74,0.03,RA,,0.03,WeatherDisplay:10.37,2013-02-04 20:41:00,
2013-02-04 14:42:00,20.3,13.0,29.91,NE,35,3.7,5.8,73,0.03,,,0.03,WeatherDisplay:10.37,2013-02-04 20:42:00,
2013-02-04 14:45:00,20.2,12.9,29.91,NNW,343,0.6,3.5,73,0.03,CLR,,0.03,WeatherDisplay:10.37,2013-02-04 20:45:00,
2013-02-04 14:46:00,20.0,12.7,29.91,NNE,18,3.7,4.6,73,0.03,CLR,,0.03,WeatherDisplay:10.37,2013-02-04 20:46:00,
2013-02-04 14:47:00,19.9,12.6,29.91,NE,41,3.9,6.9,73,0.03,CLR,,0.03,WeatherDisplay:10.37,2013-02-04 20:47:00,
2013-02-04 14:50:00,19.8,12.5,29.91,NNE,27,4.2,6.9,73,0.03,CLR,,0.03,WeatherDisplay:10.37,2013-02-04 20:50:00,
2013-02-04 14:51:00,19.8,12.5,29.91,NNE,16,2.5,6.0,73,0.03,CLR,,0.03,WeatherDisplay:10.37,2013-02-04 20:51:00,
2013-02-04 14:52:00,19.7,12.8,29.91,NNE,13,4.3,6.9,74,0.03,CLR,,0.03,WeatherDisplay:10.37,2013-02-04 20:52:00,
2013-02-04 14:55:00,19.4,12.2,29.91,North,357,4.3,5.8,73,0.03,CLR,,0.04,WeatherDisplay:10.37,2013-02-04 20:55:00,
2013-02-04 14:56:00,19.4,12.5,29.91,NE,42,4.1,5.8,74,0.04,RA,,0.04,WeatherDisplay:10.37,2013-02-04 20:56:00,
2013-02-04 14:57:00,19.3,12.4,29.91,NE,38,4.3,6.9,74,0.04,RA,,0.04,WeatherDisplay:10.37,2013-02-04 20:57:00,
2013-02-04 15:00:00,18.9,12.0,29.91,ENE,69,4.6,5.8,74,0.04,RA,,0.04,WeatherDisplay:10.37,2013-02-04 21:00:00,
2013-02-04 15:01:00,18.8,11.9,29.91,NE,35,3.6,5.8,74,0.04,RA,,0.04,WeatherDisplay:10.37,2013-02-04 21:01:00,
2013-02-04 15:02:00,18.7,11.8,29.91,ENE,72,4.0,5.8,74,0.04,RA,,0.04,WeatherDisplay:10.37,2013-02-04 21:02:00,
2013-02-04 15:05:00,18.6,11.7,29.91,East,90,4.0,6.9,74,0.04,RA,,0.04,WeatherDisplay:10.37,2013-02-04 21:05:00,
2013-02-04 15:06:00,18.5,11.6,29.91,NNE,27,3.7,5.8,74,0.04,,,0.04,WeatherDisplay:10.37,2013-02-04 21:06:00,
2013-02-04 15:07:00,18.4,11.5,29.91,NE,44,3.8,4.6,74,0.04,,,0.04,WeatherDisplay:10.37,2013-02-04 21:07:00,
2013-02-04 15:10:00,18.2,11.6,29.92,ENE,61,3.7,3.7,75,0.03,CLR,,0.04,WeatherDisplay:10.37,2013-02-04 21:10:00,
2013-02-04 15:11:00,18.1,11.5,29.92,NE,56,3.7,5.8,75,0.03,CLR,,0.04,WeatherDisplay:10.37,2013-02-04 21:11:00,
2013-02-04 15:12:00,18.0,11.4,29.92,ENE,75,3.4,4.6,75,0.03,CLR,,0.04,WeatherDisplay:10.37,2013-02-04 21:12:00,
2013-02-04 15:15:00,18.0,11.4,29.92,North,11,3.2,5.8,75,0.03,CLR,,0.04,WeatherDisplay:10.37,2013-02-04 21:15:00,
2013-02-04 15:16:00,17.9,11.3,29.92,North,10,1.8,5.8,75,0.03,CLR,,0.04,WeatherDisplay:10.37,2013-02-04 21:16:00,
2013-02-04 15:17:00,17.9,11.3,29.92,NNW,340,0.5,2.1,75,0.03,CLR,,0.04,WeatherDisplay:10.37,2013-02-04 21:17:00,
2013-02-04 15:18:00,17.9,11.3,29.92,NNE,20,0.6,2.3,75,0.03,CLR,,0.04,WeatherDisplay:10.37,2013-02-04 21:18:00,
2013-02-04 15:21:00,17.6,11.0,29.92,NE,34,2.2,3.5,75,0.02,CLR,,0.04,WeatherDisplay:10.37,2013-02-04 21:21:00,
2013-02-04 15:22:00,17.7,11.1,29.92,NE,54,2.9,4.6,75,0.02,CLR,,0.04,WeatherDisplay:10.37,2013-02-04 21:22:00,
2013-02-04 15:23:00,17.5,10.9,29.92,East,100,3.7,4.6,75,0.02,CLR,,0.04,WeatherDisplay:10.37,2013-02-04 21:23:00,
2013-02-04 15:26:00,17.5,10.9,29.91,North,10,2.4,4.6,75,0.02,CLR,,0.04,WeatherDisplay:10.37,2013-02-04 21:26:00,
2013-02-04 15:27:00,17.4,10.8,29.91,East,80,3.3,4.6,75,0.02,CLR,,0.04,WeatherDisplay:10.37,2013-02-04 21:27:00,
2013-02-04 15:28:00,17.2,10.6,29.91,ESE,119,2.3,4.6,75,0.02,CLR,,0.04,WeatherDisplay:10.37,2013-02-04 21:28:00,
2013-02-04 15:31:00,16.9,10.3,29.91,East,82,4.0,5.8,75,0.02,CLR,,0.04,WeatherDisplay:10.37,2013-02-04 21:31:00,
2013-02-04 15:32:00,16.9,10.3,29.91,ENE,69,3.4,4.6,75,0.01,CLR,,0.04,WeatherDisplay:10.37,2013-02-04 21:32:00,
2013-02-04 15:33:00,16.8,10.2,29.91,NNE,32,3.4,4.6,75,0.01,CLR,,0.04,WeatherDisplay:10.37,2013-02-04 21:33:00,
2013-02-04 15:36:00,16.6,10.3,29.92,NE,40,2.2,4.9,76,0.01,CLR,,0.04,WeatherDisplay:10.37,2013-02-04 21:36:00,
2013-02-04 15:37:00,16.6,10.3,29.92,East,99,3.8,5.8,76,0.01,CLR,,0.04,WeatherDisplay:10.37,2013-02-04 21:37:00,
2013-02-04 15:38:00,16.5,10.3,29.92,East,79,2.8,5.8,76,0.01,CLR,,0.04,WeatherDisplay:10.37,2013-02-04 21:38:00,
2013-02-04 15:41:00,16.3,10.1,29.91,ENE,76,3.0,3.5,76,0.01,CLR,,0.04,WeatherDisplay:10.37,2013-02-04 21:41:00,
2013-02-04 15:42:00,16.3,10.1,29.92,ESE,121,2.6,3.5,76,0.01,CLR,,0.04,WeatherDisplay:10.37,2013-02-04 21:42:00,
2013-02-04 15:43:00,16.1,9.9,29.92,NE,41,0.1,2.3,76,0.01,CLR,,0.04,WeatherDisplay:10.37,2013-02-04 21:43:00,
2013-02-04 15:47:00,16.1,9.9,29.92,NNE,18,3.2,5.8,76,0.01,CLR,,0.04,WeatherDisplay:10.37,2013-02-04 21:47:00,
2013-02-04 15:48:00,16.0,9.8,29.92,NE,55,2.5,4.6,76,0.01,CLR,,0.04,WeatherDisplay:10.37,2013-02-04 21:48:00,
2013-02-04 15:52:00,15.8,9.6,29.91,NNE,18,2.8,4.6,76,0.01,CLR,,0.04,WeatherDisplay:10.37,2013-02-04 21:52:00,
2013-02-04 15:54:00,15.8,9.6,29.91,NNE,30,0.3,3.5,76,0.01,CLR,,0.04,WeatherDisplay:10.37,2013-02-04 21:54:00,
2013-02-04 15:57:00,15.7,9.8,29.92,North,7,1.5,3.5,77,0.00,CLR,,0.04,WeatherDisplay:10.37,2013-02-04 21:57:00,
2013-02-04 15:59:00,15.6,9.7,29.91,NNE,18,0.4,1.1,77,0.00,CLR,,0.04,WeatherDisplay:10.37,2013-02-04 21:59:00,
2013-02-04 16:02:00,15.5,9.6,29.91,NNE,16,2.2,3.5,77,0.00,CLR,,0.04,WeatherDisplay:10.37,2013-02-04 22:02:00,
2013-02-04 16:04:00,15.4,9.5,29.91,NE,47,1.6,2.3,77,0.00,CLR,,0.04,WeatherDisplay:10.37,2013-02-04 22:04:00,
2013-02-04 16:07:00,15.3,9.4,29.91,NNE,24,0.7,1.9,77,0.00,CLR,,0.04,WeatherDisplay:10.37,2013-02-04 22:07:00,
2013-02-04 16:09:00,15.2,9.3,29.92,ESE,120,0.4,3.5,77,0.00,CLR,,0.04,WeatherDisplay:10.37,2013-02-04 22:09:00,
2013-02-04 16:12:00,15.0,9.1,29.92,NE,40,1.0,2.3,77,0.00,CLR,,0.04,WeatherDisplay:10.37,2013-02-04 22:12:00,
2013-02-04 16:14:00,15.0,9.4,29.92,NNE,13,2.1,3.5,78,0.00,CLR,,0.04,WeatherDisplay:10.37,2013-02-04 22:14:00,
2013-02-04 16:17:00,14.8,9.2,29.92,NE,52,0.1,1.1,78,0.00,CLR,,0.04,WeatherDisplay:10.37,2013-02-04 22:17:00,
2013-02-04 16:20:00,14.7,9.1,29.92,East,100,2.7,3.5,78,0.00,CLR,,0.04,WeatherDisplay:10.37,2013-02-04 22:20:00,
2013-02-04 16:22:00,14.6,9.0,29.92,SE,137,1.9,3.5,78,0.00,CLR,,0.04,WeatherDisplay:10.37,2013-02-04 22:22:00,
2013-02-04 16:25:00,14.4,8.8,29.91,SE,140,2.0,2.3,78,0.00,CLR,,0.04,WeatherDisplay:10.37,2013-02-04 22:25:00,
2013-02-04 16:27:00,14.4,8.8,29.91,SE,124,1.7,2.6,78,0.00,CLR,,0.04,WeatherDisplay:10.37,2013-02-04 22:27:00,
2013-02-04 16:28:00,14.4,8.8,29.91,ESE,104,1.7,2.7,78,0.00,CLR,,0.04,WeatherDisplay:10.37,2013-02-04 22:28:00,
2013-02-04 16:30:00,14.2,8.6,29.91,ESE,120,3.1,4.6,78,0.00,CLR,,0.04,WeatherDisplay:10.37,2013-02-04 22:30:00,
2013-02-04 16:32:00,14.1,8.5,29.91,ESE,110,2.9,3.5,78,0.00,CLR,,0.04,WeatherDisplay:10.37,2013-02-04 22:32:00,
2013-02-04 16:33:00,14.1,8.5,29.91,ESE,116,3.2,4.6,78,0.00,CLR,,0.04,WeatherDisplay:10.37,2013-02-04 22:33:00,
2013-02-04 16:35:00,14.0,8.7,29.91,ESE,109,2.9,3.9,79,0.00,CLR,,0.04,WeatherDisplay:10.37,2013-02-04 22:35:00,
2013-02-04 16:37:00,13.9,8.6,29.91,ESE,119,2.3,3.4,79,0.00,CLR,,0.04,WeatherDisplay:10.37,2013-02-04 22:37:00,
2013-02-04 16:38:00,13.9,8.6,29.91,ESE,119,2.8,3.6,79,0.00,CLR,,0.04,WeatherDisplay:10.37,2013-02-04 22:38:00,
2013-02-04 16:40:00,13.6,8.3,29.91,ESE,107,2.3,3.5,79,0.00,CLR,,0.04,WeatherDisplay:10.37,2013-02-04 22:40:00,
2013-02-04 16:42:00,13.6,8.3,29.91,East,90,2.1,2.8,79,0.00,CLR,,0.04,WeatherDisplay:10.37,2013-02-04 22:42:00,
2013-02-04 16:43:00,13.4,8.1,29.91,ESE,112,2.0,2.4,79,0.00,CLR,,0.04,WeatherDisplay:10.37,2013-02-04 22:43:00,
2013-02-04 16:45:00,13.3,8.0,29.91,ENE,78,1.2,2.3,79,0.00,CLR,,0.04,WeatherDisplay:10.37,2013-02-04 22:45:00,
2013-02-04 16:47:00,13.1,7.8,29.91,ESE,123,2.5,3.5,79,0.00,CLR,,0.04,WeatherDisplay:10.37,2013-02-04 22:47:00,
2013-02-04 16:48:00,13.0,7.7,29.91,SE,133,2.0,3.5,79,0.00,CLR,,0.04,WeatherDisplay:10.37,2013-02-04 22:48:00,
2013-02-04 16:50:00,12.8,7.5,29.91,ESE,119,1.8,1.9,79,0.00,CLR,,0.04,WeatherDisplay:10.37,2013-02-04 22:50:00,
2013-02-04 16:52:00,12.7,7.7,29.91,ESE,113,0.7,1.1,80,0.00,CLR,,0.04,WeatherDisplay:10.37,2013-02-04 22:52:00,
2013-02-04 16:53:00,12.6,7.6,29.91,ESE,113,0.2,1.1,80,0.00,CLR,,0.04,WeatherDisplay:10.37,2013-02-04 22:53:00,
2013-02-04 16:55:00,12.4,7.4,29.91,ESE,113,0.0,0.0,80,0.00,CLR,,0.04,WeatherDisplay:10.37,2013-02-04 22:55:00,
2013-02-04 16:58:00,12.2,7.2,29.91,ESE,113,0.0,0.0,80,0.00,CLR,,0.04,WeatherDisplay:10.37,2013-02-04 22:58:00,
2013-02-04 17:01:00,11.9,7.2,29.91,South,176,0.5,1.7,81,0.00,CLR,,0.04,WeatherDisplay:10.37,2013-02-04 23:01:00,
2013-02-04 17:03:00,11.5,6.8,29.91,ESE,114,0.2,1.1,81,0.00,CLR,,0.04,WeatherDisplay:10.37,2013-02-04 23:03:00,
2013-02-04 17:06:00,11.3,6.6,29.92,SE,128,0.0,0.0,81,0.00,CLR,,0.04,WeatherDisplay:10.37,2013-02-04 23:06:00,
2013-02-04 17:08:00,11.2,6.5,29.92,SE,128,0.0,0.0,81,0.00,CLR,,0.04,WeatherDisplay:10.37,2013-02-04 23:08:00,
2013-02-04 17:09:00,11.0,6.6,29.92,SE,128,0.0,0.0,82,0.00,CLR,,0.04,WeatherDisplay:10.37,2013-02-04 23:09:00,
2013-02-04 17:11:00,10.8,6.4,29.92,SE,128,0.0,0.0,82,0.00,CLR,,0.04,WeatherDisplay:10.37,2013-02-04 23:11:00,
2013-02-04 17:13:00,10.6,6.2,29.92,SE,128,0.0,0.0,82,0.00,CLR,,0.04,WeatherDisplay:10.37,2013-02-04 23:13:00,
2013-02-04 17:14:00,10.5,6.1,29.92,SE,128,0.0,0.0,82,0.00,CLR,,0.04,WeatherDisplay:10.37,2013-02-04 23:14:00,
2013-02-04 17:17:00,10.1,5.7,29.92,SE,128,0.0,0.0,82,0.00,CLR,,0.04,WeatherDisplay:10.37,2013-02-04 23:17:00,
2013-02-04 17:18:00,10.2,5.8,29.92,SE,128,0.0,0.0,82,0.00,CLR,,0.04,WeatherDisplay:10.37,2013-02-04 23:18:00,
2013-02-04 17:19:00,9.9,5.5,29.92,SE,128,0.0,0.0,82,0.00,CLR,,0.04,WeatherDisplay:10.37,2013-02-04 23:19:00,
2013-02-04 17:22:00,9.5,5.4,29.92,SE,128,0.0,0.0,83,0.00,CLR,,0.04,WeatherDisplay:10.37,2013-02-04 23:22:00,
2013-02-04 17:23:00,9.3,5.2,29.92,SE,128,0.0,0.0,83,0.00,CLR,,0.04,WeatherDisplay:10.37,2013-02-04 23:23:00,
2013-02-04 17:24:00,9.2,5.1,29.92,SE,128,0.0,0.0,83,0.00,CLR,,0.04,WeatherDisplay:10.37,2013-02-04 23:24:00,
2013-02-04 17:27:00,9.0,4.9,29.92,SE,128,0.0,0.0,83,0.00,CLR,,0.04,WeatherDisplay:10.37,2013-02-04 23:27:00,
2013-02-04 17:28:00,8.7,4.6,29.92,SE,128,0.0,0.0,83,0.00,CLR,,0.04,WeatherDisplay:10.37,2013-02-04 23:28:00,
2013-02-04 17:29:00,8.8,5.0,29.92,SE,128,0.0,0.0,84,0.00,CLR,,0.04,WeatherDisplay:10.37,2013-02-04 23:29:00,
2013-02-04 17:32:00,8.3,4.5,29.92,SE,128,0.0,0.0,84,0.00,CLR,,0.04,WeatherDisplay:10.37,2013-02-04 23:32:00,
2013-02-04 17:33:00,8.6,4.8,29.92,SE,128,0.0,0.0,84,0.00,CLR,,0.04,WeatherDisplay:10.37,2013-02-04 23:33:00,
2013-02-04 17:34:00,8.3,4.5,29.92,SE,128,0.0,0.0,84,0.00,CLR,,0.04,WeatherDisplay:10.37,2013-02-04 23:34:00,
2013-02-04 17:37:00,8.0,4.4,29.92,SE,128,0.0,0.0,85,0.00,CLR,,0.04,WeatherDisplay:10.37,2013-02-04 23:37:00,
2013-02-04 17:38:00,8.1,4.5,29.92,SE,128,0.0,0.0,85,0.00,CLR,,0.04,WeatherDisplay:10.37,2013-02-04 23:38:00,
2013-02-04 17:39:00,8.1,4.5,29.92,SE,128,0.0,0.0,85,0.00,CLR,,0.04,WeatherDisplay:10.37,2013-02-04 23:39:00,
2013-02-04 17:42:00,7.7,4.1,29.92,SE,128,0.0,0.0,85,0.00,CLR,,0.04,WeatherDisplay:10.37,2013-02-04 23:42:00,
2013-02-04 17:43:00,7.6,4.0,29.92,SE,128,0.0,0.0,85,0.00,CLR,,0.04,WeatherDisplay:10.37,2013-02-04 23:43:00,
2013-02-04 17:44:00,7.5,3.9,29.92,SE,128,0.0,0.0,85,0.00,CLR,,0.04,WeatherDisplay:10.37,2013-02-04 23:44:00,
2013-02-04 17:47:00,7.2,3.6,29.92,SE,128,0.0,0.0,85,0.00,CLR,,0.04,WeatherDisplay:10.37,2013-02-04 23:47:00,
2013-02-04 17:48:00,7.1,3.8,29.93,SE,128,0.0,0.0,86,0.00,CLR,,0.04,WeatherDisplay:10.37,2013-02-04 23:48:00,
2013-02-04 17:49:00,7.0,3.7,29.93,SE,128,0.0,0.0,86,0.00,CLR,,0.04,WeatherDisplay:10.37,2013-02-04 23:49:00,
2013-02-04 17:53:00,6.8,3.5,29.92,SE,128,0.0,0.0,86,0.00,CLR,,0.04,WeatherDisplay:10.37,2013-02-04 23:53:00,
2013-02-04 17:54:00,6.8,3.5,29.92,SE,128,0.0,0.0,86,0.00,CLR,,0.04,WeatherDisplay:10.37,2013-02-04 23:54:00,
2013-02-04 17:58:00,6.5,3.2,29.92,SE,128,0.0,0.0,86,0.00,CLR,,0.04,WeatherDisplay:10.37,2013-02-04 23:58:00,
2013-02-04 17:59:00,6.4,3.1,29.92,SE,128,0.0,0.0,86,0.00,CLR,,0.04,WeatherDisplay:10.37,2013-02-04 23:59:00,
2013-02-04 18:00:00,6.2,2.9,29.92,SE,128,0.0,0.0,86,0.00,CLR,,0.04,WeatherDisplay:10.37,2013-02-05 00:00:00,
2013-02-04 18:03:00,6.3,3.3,29.92,SE,128,0.0,0.0,87,0.00,CLR,,0.04,WeatherDisplay:10.37,2013-02-05 00:03:00,
2013-02-04 18:04:00,6.1,3.1,29.92,SE,128,0.0,0.0,87,0.00,CLR,,0.04,WeatherDisplay:10.37,2013-02-05 00:04:00,
2013-02-04 18:07:00,5.8,2.8,29.92,SE,128,0.0,0.0,87,0.00,CLR,,0.04,WeatherDisplay:10.37,2013-02-05 00:07:00,
2013-02-04 18:08:00,5.8,2.8,29.92,SE,128,0.0,0.0,87,0.00,CLR,,0.04,WeatherDisplay:10.37,2013-02-05 00:08:00,
2013-02-04 18:09:00,5.9,2.9,29.92,SE,128,0.0,0.0,87,0.00,CLR,,0.04,WeatherDisplay:10.37,2013-02-05 00:09:00,
2013-02-04 18:12:00,5.7,2.9,29.92,SE,128,0.0,0.0,88,0.00,CLR,,0.04,WeatherDisplay:10.37,2013-02-05 00:12:00,
2013-02-04 18:13:00,5.6,2.8,29.92,SE,128,0.0,0.0,88,0.00,CLR,,0.04,WeatherDisplay:10.37,2013-02-05 00:13:00,
2013-02-04 18:14:00,5.7,2.9,29.92,SE,128,0.0,0.0,88,0.00,CLR,,0.04,WeatherDisplay:10.37,2013-02-05 00:14:00,
2013-02-04 18:15:00,5.6,2.8,29.92,SE,128,0.0,0.0,88,0.00,CLR,,0.04,WeatherDisplay:10.37,2013-02-05 00:15:00,
2013-02-04 18:17:00,5.5,2.7,29.92,SE,128,0.0,0.0,88,0.00,CLR,,0.04,WeatherDisplay:10.37,2013-02-05 00:17:00,
2013-02-04 18:18:00,5.5,2.7,29.92,SE,128,0.0,0.0,88,0.00,CLR,,0.04,WeatherDisplay:10.37,2013-02-05 00:18:00,
2013-02-04 18:19:00,5.5,2.7,29.92,SE,128,0.0,0.0,88,0.00,CLR,,0.04,WeatherDisplay:10.37,2013-02-05 00:19:00,
2013-02-04 18:20:00,5.4,2.6,29.92,SE,128,0.0,0.0,88,0.00,CLR,,0.04,WeatherDisplay:10.37,2013-02-05 00:20:00,
2013-02-04 18:22:00,5.4,2.6,29.92,SE,128,0.0,0.0,88,0.00,CLR,,0.04,WeatherDisplay:10.37,2013-02-05 00:22:00,
2013-02-04 18:23:00,5.5,2.7,29.92,SE,128,0.0,0.0,88,0.00,CLR,,0.04,WeatherDisplay:10.37,2013-02-05 00:23:00,
2013-02-04 18:24:00,5.4,2.6,29.92,SE,128,0.0,0.0,88,0.00,CLR,,0.04,WeatherDisplay:10.37,2013-02-05 00:24:00,
2013-02-04 18:25:00,5.3,2.5,29.92,SE,128,0.0,0.0,88,0.00,CLR,,0.04,WeatherDisplay:10.37,2013-02-05 00:25:00,
2013-02-04 18:28:00,5.3,2.8,29.92,SE,128,0.0,0.0,89,0.00,CLR,,0.04,WeatherDisplay:10.37,2013-02-05 00:28:00,
2013-02-04 18:30:00,5.5,3.0,29.92,SE,128,0.0,0.0,89,0.00,CLR,,0.04,WeatherDisplay:10.37,2013-02-05 00:30:00,
2013-02-04 18:33:00,5.4,2.9,29.92,SE,128,0.0,0.0,89,0.00,CLR,,0.04,WeatherDisplay:10.37,2013-02-05 00:33:00,
2013-02-04 18:35:00,5.3,2.8,29.92,SE,128,0.0,0.0,89,0.00,CLR,,0.04,WeatherDisplay:10.37,2013-02-05 00:35:00,
2013-02-04 18:38:00,5.4,3.1,29.92,SE,128,0.0,0.0,90,0.00,CLR,,0.04,WeatherDisplay:10.37,2013-02-05 00:38:00,
2013-02-04 18:40:00,5.5,3.2,29.92,SE,128,0.0,0.0,90,0.00,CLR,,0.04,WeatherDisplay:10.37,2013-02-05 00:40:00,
2013-02-04 18:43:00,5.4,3.1,29.92,SE,128,0.0,0.0,90,0.00,CLR,,0.04,WeatherDisplay:10.37,2013-02-05 00:43:00,
2013-02-04 18:45:00,5.5,3.2,29.92,SE,128,0.0,0.0,90,0.00,CLR,,0.04,WeatherDisplay:10.37,2013-02-05 00:45:00,
2013-02-04 18:48:00,5.6,3.3,29.93,SE,128,0.0,0.0,90,0.00,CLR,,0.04,WeatherDisplay:10.37,2013-02-05 00:48:00,
2013-02-04 18:50:00,5.4,3.1,29.93,SE,128,0.0,0.0,90,0.00,CLR,,0.04,WeatherDisplay:10.37,2013-02-05 00:50:00,
2013-02-04 18:51:00,5.5,3.2,29.93,SE,128,0.0,0.0,90,0.00,CLR,,0.04,WeatherDisplay:10.37,2013-02-05 00:51:00,
2013-02-04 18:53:00,5.6,3.3,29.93,SE,128,0.0,0.0,90,0.00,CLR,,0.04,WeatherDisplay:10.37,2013-02-05 00:53:00,
2013-02-04 18:56:00,5.6,3.3,29.93,SE,128,0.0,0.0,90,0.00,CLR,,0.04,WeatherDisplay:10.37,2013-02-05 00:56:00,
2013-02-04 18:58:00,5.7,3.6,29.93,SE,128,0.0,0.0,91,0.00,CLR,,0.04,WeatherDisplay:10.37,2013-02-05 00:58:00,
2013-02-04 19:01:00,5.8,3.7,29.93,SE,128,0.0,0.0,91,0.00,CLR,,0.04,WeatherDisplay:10.37,2013-02-05 01:01:00,
2013-02-04 19:03:00,5.8,3.7,29.93,SE,128,0.0,0.0,91,0.00,CLR,,0.04,WeatherDisplay:10.37,2013-02-05 01:03:00,
2013-02-04 19:06:00,5.9,3.8,29.93,SE,128,0.0,0.0,91,0.00,CLR,,0.04,WeatherDisplay:10.37,2013-02-05 01:06:00,
2013-02-04 19:08:00,6.1,4.3,29.94,SE,128,0.0,0.0,92,0.00,CLR,,0.04,WeatherDisplay:10.37,2013-02-05 01:08:00,
2013-02-04 19:09:00,6.0,4.2,29.94,SE,128,0.0,0.0,92,0.00,CLR,,0.04,WeatherDisplay:10.37,2013-02-05 01:09:00,
2013-02-04 19:11:00,6.1,4.3,29.94,SE,128,0.0,0.0,92,0.00,CLR,,0.04,WeatherDisplay:10.37,2013-02-05 01:11:00,
2013-02-04 19:14:00,6.3,4.5,29.94,SE,128,0.0,0.0,92,0.00,CLR,,0.04,WeatherDisplay:10.37,2013-02-05 01:14:00,
2013-02-04 19:16:00,6.3,4.5,29.94,SE,128,0.0,0.0,92,0.00,CLR,,0.04,WeatherDisplay:10.37,2013-02-05 01:16:00,
2013-02-04 19:17:00,6.4,4.6,29.94,SE,128,0.0,0.0,92,0.00,CLR,,0.04,WeatherDisplay:10.37,2013-02-05 01:17:00,
2013-02-04 19:19:00,6.2,4.4,29.94,SE,128,0.0,0.0,92,0.00,CLR,,0.04,WeatherDisplay:10.37,2013-02-05 01:19:00,
2013-02-04 19:21:00,6.3,4.5,29.94,SE,128,0.0,0.0,92,0.00,CLR,,0.04,WeatherDisplay:10.37,2013-02-05 01:21:00,
2013-02-04 19:22:00,6.3,4.5,29.94,SE,128,0.0,0.0,92,0.00,CLR,,0.04,WeatherDisplay:10.37,2013-02-05 01:22:00,
2013-02-04 19:24:00,6.4,4.6,29.93,SE,128,0.0,0.0,92,0.00,CLR,,0.04,WeatherDisplay:10.37,2013-02-05 01:24:00,
2013-02-04 19:26:00,6.4,4.6,29.93,SE,128,0.0,0.0,92,0.00,CLR,,0.04,WeatherDisplay:10.37,2013-02-05 01:26:00,
2013-02-04 19:27:00,6.4,4.6,29.93,SE,128,0.0,0.0,92,0.00,CLR,,0.04,WeatherDisplay:10.37,2013-02-05 01:27:00,
2013-02-04 19:29:00,6.4,4.6,29.93,SE,128,0.0,0.0,92,0.00,CLR,,0.04,WeatherDisplay:10.37,2013-02-05 01:29:00,
2013-02-04 19:31:00,6.3,4.5,29.93,SE,128,0.0,0.0,92,0.00,CLR,,0.04,WeatherDisplay:10.37,2013-02-05 01:31:00,
2013-02-04 19:32:00,6.4,4.6,29.93,SE,128,0.0,0.0,92,0.00,CLR,,0.04,WeatherDisplay:10.37,2013-02-05 01:32:00,
2013-02-04 19:34:00,6.3,4.5,29.93,SE,128,0.0,0.0,92,0.00,CLR,,0.04,WeatherDisplay:10.37,2013-02-05 01:34:00,
2013-02-04 19:35:00,6.5,4.7,29.93,SE,128,0.0,0.0,92,0.00,CLR,,0.04,WeatherDisplay:10.37,2013-02-05 01:35:00,
2013-02-04 19:36:00,6.5,4.4,29.93,SE,128,0.0,0.0,91,0.00,CLR,,0.04,WeatherDisplay:10.37,2013-02-05 01:36:00,
2013-02-04 19:37:00,6.4,4.3,29.93,SE,128,0.0,0.0,91,0.00,CLR,,0.04,WeatherDisplay:10.37,2013-02-05 01:37:00,
2013-02-04 19:39:00,6.4,4.3,29.93,SE,128,0.0,0.0,91,0.00,CLR,,0.04,WeatherDisplay:10.37,2013-02-05 01:39:00,
2013-02-04 19:40:00,6.4,4.3,29.93,SE,128,0.0,0.0,91,0.00,CLR,,0.04,WeatherDisplay:10.37,2013-02-05 01:40:00,
2013-02-04 19:41:00,6.5,4.4,29.93,SE,128,0.0,0.0,91,0.00,CLR,,0.04,WeatherDisplay:10.37,2013-02-05 01:41:00,
2013-02-04 19:42:00,6.5,4.4,29.93,SE,128,0.0,0.0,91,0.00,CLR,,0.04,WeatherDisplay:10.37,2013-02-05 01:42:00,
2013-02-04 19:44:00,6.4,4.3,29.93,SE,128,0.0,0.0,91,0.00,CLR,,0.04,WeatherDisplay:10.37,2013-02-05 01:44:00,
2013-02-04 19:45:00,6.5,4.4,29.93,SE,128,0.0,0.0,91,0.00,CLR,,0.04,WeatherDisplay:10.37,2013-02-05 01:45:00,
2013-02-04 19:47:00,6.4,4.3,29.93,SE,128,0.0,0.0,91,0.00,CLR,,0.04,WeatherDisplay:10.37,2013-02-05 01:47:00,
2013-02-04 19:50:00,6.5,4.4,29.93,SE,128,0.0,0.0,91,0.00,CLR,,0.04,WeatherDisplay:10.37,2013-02-05 01:50:00,
2013-02-04 19:52:00,6.5,4.4,29.93,SE,128,0.0,0.0,91,0.00,CLR,,0.04,WeatherDisplay:10.37,2013-02-05 01:52:00,
2013-02-04 19:55:00,6.5,4.4,29.93,SE,128,0.0,0.0,91,0.00,CLR,,0.04,WeatherDisplay:10.37,2013-02-05 01:55:00,
2013-02-04 19:57:00,6.4,4.3,29.93,SE,128,0.0,0.0,91,0.00,CLR,,0.04,WeatherDisplay:10.37,2013-02-05 01:57:00,
2013-02-04 20:00:00,6.5,4.4,29.93,SE,128,0.0,0.0,91,0.00,CLR,,0.04,WeatherDisplay:10.37,2013-02-05 02:00:00,
2013-02-04 20:02:00,6.5,4.4,29.93,SE,128,0.0,0.0,91,0.00,CLR,,0.04,WeatherDisplay:10.37,2013-02-05 02:02:00,
2013-02-04 20:05:00,6.6,4.5,29.93,SE,128,0.0,0.0,91,0.00,CLR,,0.04,WeatherDisplay:10.37,2013-02-05 02:05:00,
2013-02-04 20:07:00,6.4,4.6,29.93,SE,128,0.0,0.0,92,0.00,CLR,,0.04,WeatherDisplay:10.37,2013-02-05 02:07:00,
2013-02-04 20:08:00,6.5,4.7,29.93,SE,128,0.0,0.0,92,0.00,CLR,,0.04,WeatherDisplay:10.37,2013-02-05 02:08:00,
2013-02-04 20:10:00,6.5,4.7,29.93,SE,128,0.0,0.0,92,0.00,CLR,,0.04,WeatherDisplay:10.37,2013-02-05 02:10:00,
2013-02-04 20:12:00,6.5,4.7,29.93,SE,128,0.0,0.0,92,0.00,CLR,,0.04,WeatherDisplay:10.37,2013-02-05 02:12:00,
2013-02-04 20:13:00,6.6,4.8,29.93,SE,128,0.0,0.0,92,0.00,CLR,,0.04,WeatherDisplay:10.37,2013-02-05 02:13:00,
2013-02-04 20:15:00,6.5,4.7,29.93,SE,128,0.0,0.0,92,0.00,CLR,,0.04,WeatherDisplay:10.37,2013-02-05 02:15:00,
2013-02-04 20:18:00,6.5,4.7,29.93,SE,128,0.0,0.0,92,0.00,CLR,,0.04,WeatherDisplay:10.37,2013-02-05 02:18:00,
2013-02-04 20:20:00,6.6,4.8,29.92,SE,128,0.0,0.0,92,0.00,CLR,,0.04,WeatherDisplay:10.37,2013-02-05 02:20:00,
2013-02-04 20:21:00,6.6,4.8,29.93,SE,128,0.0,0.0,92,0.00,CLR,,0.04,WeatherDisplay:10.37,2013-02-05 02:21:00,
2013-02-04 20:23:00,6.5,4.7,29.93,SE,128,0.0,0.0,92,0.00,CLR,,0.04,WeatherDisplay:10.37,2013-02-05 02:23:00,
2013-02-04 20:25:00,6.6,4.8,29.92,SE,128,0.0,0.0,92,0.00,CLR,,0.04,WeatherDisplay:10.37,2013-02-05 02:25:00,
2013-02-04 20:26:00,6.6,4.8,29.92,SE,128,0.0,0.0,92,0.00,CLR,,0.04,WeatherDisplay:10.37,2013-02-05 02:26:00,
2013-02-04 20:28:00,6.5,4.7,29.92,SE,128,0.0,0.0,92,0.00,CLR,,0.04,WeatherDisplay:10.37,2013-02-05 02:28:00,
2013-02-04 20:30:00,6.4,4.6,29.92,SE,128,0.0,0.0,92,0.00,CLR,,0.04,WeatherDisplay:10.37,2013-02-05 02:30:00,
2013-02-04 20:31:00,6.4,4.6,29.92,SE,128,0.0,0.0,92,0.00,CLR,,0.04,WeatherDisplay:10.37,2013-02-05 02:31:00,
2013-02-04 20:33:00,6.6,4.8,29.92,SE,128,0.0,0.0,92,0.00,CLR,,0.04,WeatherDisplay:10.37,2013-02-05 02:33:00,
2013-02-04 20:36:00,6.5,4.7,29.92,SE,128,0.0,0.0,92,0.00,CLR,,0.04,WeatherDisplay:10.37,2013-02-05 02:36:00,
2013-02-04 20:38:00,6.6,4.8,29.93,SE,128,0.0,0.0,92,0.00,CLR,,0.04,WeatherDisplay:10.37,2013-02-05 02:38:00,
2013-02-04 20:41:00,6.7,4.9,29.93,SE,128,0.0,0.0,92,0.00,CLR,,0.04,WeatherDisplay:10.37,2013-02-05 02:41:00,
2013-02-04 20:43:00,6.6,4.8,29.93,SE,128,0.0,0.0,92,0.00,CLR,,0.04,WeatherDisplay:10.37,2013-02-05 02:43:00,
2013-02-04 20:46:00,6.8,5.0,29.93,SE,128,0.0,0.0,92,0.00,CLR,,0.04,WeatherDisplay:10.37,2013-02-05 02:46:00,
2013-02-04 20:48:00,6.6,4.8,29.93,SE,128,0.0,0.0,92,0.00,CLR,,0.04,WeatherDisplay:10.37,2013-02-05 02:48:00,
2013-02-04 20:49:00,6.7,4.9,29.93,SE,128,0.0,0.0,92,0.00,CLR,,0.04,WeatherDisplay:10.37,2013-02-05 02:49:00,
2013-02-04 20:51:00,6.7,4.9,29.93,SE,128,0.0,0.0,92,0.00,CLR,,0.04,WeatherDisplay:10.37,2013-02-05 02:51:00,
2013-02-04 20:53:00,6.7,4.9,29.93,SE,128,0.0,0.0,92,0.00,CLR,,0.04,WeatherDisplay:10.37,2013-02-05 02:53:00,
2013-02-04 20:54:00,6.7,4.9,29.93,SE,128,0.0,0.0,92,0.00,CLR,,0.04,WeatherDisplay:10.37,2013-02-05 02:54:00,
2013-02-04 20:56:00,6.7,4.9,29.93,SE,128,0.0,0.0,92,0.00,CLR,,0.04,WeatherDisplay:10.37,2013-02-05 02:56:00,
2013-02-04 20:58:00,6.7,4.9,29.92,SE,128,0.0,0.0,92,0.00,CLR,,0.04,WeatherDisplay:10.37,2013-02-05 02:58:00,
2013-02-04 20:59:00,6.6,4.8,29.92,SE,128,0.0,0.0,92,0.00,CLR,,0.04,WeatherDisplay:10.37,2013-02-05 02:59:00,
2013-02-04 21:01:00,6.5,4.7,29.92,SE,128,0.0,0.0,92,0.00,CLR,,0.04,WeatherDisplay:10.37,2013-02-05 03:01:00,
2013-02-04 21:03:00,6.6,4.8,29.92,SE,128,0.0,0.0,92,0.00,CLR,,0.04,WeatherDisplay:10.37,2013-02-05 03:03:00,
2013-02-04 21:04:00,6.5,4.7,29.92,SE,128,0.0,0.0,92,0.00,CLR,,0.04,WeatherDisplay:10.37,2013-02-05 03:04:00,
2013-02-04 21:06:00,6.4,4.6,29.92,SE,128,0.0,0.0,92,0.00,CLR,,0.04,WeatherDisplay:10.37,2013-02-05 03:06:00,
2013-02-04 21:08:00,6.3,4.5,29.92,SE,128,0.0,0.0,92,0.00,CLR,,0.04,WeatherDisplay:10.37,2013-02-05 03:08:00,
2013-02-04 21:09:00,6.3,4.5,29.92,SE,128,0.0,0.0,92,0.00,CLR,,0.04,WeatherDisplay:10.37,2013-02-05 03:09:00,
2013-02-04 21:11:00,6.1,2.8,29.92,SE,128,0.0,0.0,86,0.00,CLR,,0.04,WeatherDisplay:10.37,2013-02-05 03:11:00,
2013-02-04 21:12:00,6.0,2.7,29.92,SE,128,0.0,0.0,86,0.00,CLR,,0.04,WeatherDisplay:10.37,2013-02-05 03:12:00,
2013-02-04 21:13:00,6.1,2.8,29.92,SE,128,0.0,0.0,86,0.00,CLR,,0.04,WeatherDisplay:10.37,2013-02-05 03:13:00,
2013-02-04 21:14:00,5.9,2.6,29.92,SE,128,0.0,0.0,86,0.00,CLR,,0.04,WeatherDisplay:10.37,2013-02-05 03:14:00,
2013-02-04 21:17:00,5.9,2.6,29.92,SE,128,0.0,0.0,86,0.00,CLR,,0.04,WeatherDisplay:10.37,2013-02-05 03:17:00,
2013-02-04 21:18:00,5.9,2.6,29.92,SE,128,0.0,0.0,86,0.00,CLR,,0.04,WeatherDisplay:10.37,2013-02-05 03:18:00,
2013-02-04 21:19:00,5.8,2.5,29.92,SE,128,0.0,0.0,86,0.00,CLR,,0.04,WeatherDisplay:10.37,2013-02-05 03:19:00,
2013-02-04 21:22:00,5.7,2.4,29.92,SE,128,0.0,0.0,86,0.00,CLR,,0.04,WeatherDisplay:10.37,2013-02-05 03:22:00,
2013-02-04 21:23:00,5.7,2.4,29.92,SE,128,0.0,0.0,86,0.00,CLR,,0.04,WeatherDisplay:10.37,2013-02-05 03:23:00,
2013-02-04 21:24:00,5.6,2.3,29.92,SE,128,0.0,0.0,86,0.00,CLR,,0.04,WeatherDisplay:10.37,2013-02-05 03:24:00,
2013-02-04 21:27:00,5.5,2.2,29.91,SE,128,0.0,0.0,86,0.00,CLR,,0.04,WeatherDisplay:10.37,2013-02-05 03:27:00,
2013-02-04 21:29:00,5.5,2.2,29.92,SE,128,0.0,0.0,86,0.00,CLR,,0.04,WeatherDisplay:10.37,2013-02-05 03:29:00,
2013-02-04 21:32:00,5.4,2.1,29.92,SE,128,0.0,0.0,86,0.00,CLR,,0.04,WeatherDisplay:10.37,2013-02-05 03:32:00,
2013-02-04 21:33:00,5.4,2.1,29.92,SE,128,0.0,0.0,86,0.00,CLR,,0.04,WeatherDisplay:10.37,2013-02-05 03:33:00,
2013-02-04 21:34:00,5.4,2.1,29.92,SE,128,0.0,0.0,86,0.00,CLR,,0.04,WeatherDisplay:10.37,2013-02-05 03:34:00,
2013-02-04 21:38:00,5.3,2.0,29.92,SE,128,0.0,0.0,86,0.00,CLR,,0.04,WeatherDisplay:10.37,2013-02-05 03:38:00,
2013-02-04 21:39:00,5.4,2.1,29.92,SE,128,0.0,0.0,86,0.00,CLR,,0.04,WeatherDisplay:10.37,2013-02-05 03:39:00,
2013-02-04 21:43:00,5.3,2.0,29.91,SE,128,0.0,0.0,86,0.00,CLR,,0.04,WeatherDisplay:10.37,2013-02-05 03:43:00,
2013-02-04 21:44:00,5.3,2.0,29.91,SE,128,0.0,0.0,86,0.00,CLR,,0.04,WeatherDisplay:10.37,2013-02-05 03:44:00,
2013-02-04 21:48:00,5.3,2.0,29.92,SE,128,0.0,0.0,86,0.00,CLR,,0.04,WeatherDisplay:10.37,2013-02-05 03:48:00,
2013-02-04 21:49:00,5.3,2.0,29.92,SE,128,0.0,0.0,86,0.00,CLR,,0.04,WeatherDisplay:10.37,2013-02-05 03:49:00,
2013-02-04 21:50:00,5.3,2.0,29.92,SE,128,0.0,0.0,86,0.00,CLR,,0.04,WeatherDisplay:10.37,2013-02-05 03:50:00,
2013-02-04 21:53:00,5.2,1.9,29.92,SE,128,0.0,0.0,86,0.00,CLR,,0.04,WeatherDisplay:10.37,2013-02-05 03:53:00,
2013-02-04 21:54:00,5.2,1.9,29.92,SE,128,0.0,0.0,86,0.00,CLR,,0.04,WeatherDisplay:10.37,2013-02-05 03:54:00,
2013-02-04 21:55:00,5.2,1.9,29.92,SE,128,0.0,0.0,86,0.00,CLR,,0.04,WeatherDisplay:10.37,2013-02-05 03:55:00,
2013-02-04 21:58:00,5.2,2.2,29.92,SE,128,0.0,0.0,87,0.00,CLR,,0.04,WeatherDisplay:10.37,2013-02-05 03:58:00,
2013-02-04 21:59:00,5.2,2.2,29.92,SE,128,0.0,0.0,87,0.00,CLR,,0.04,WeatherDisplay:10.37,2013-02-05 03:59:00,
2013-02-04 22:00:00,5.2,2.2,29.92,SE,128,0.0,0.0,87,0.00,CLR,,0.04,WeatherDisplay:10.37,2013-02-05 04:00:00,
2013-02-04 22:03:00,5.2,2.2,29.92,SE,128,0.0,0.0,87,0.00,CLR,,0.04,WeatherDisplay:10.37,2013-02-05 04:03:00,
2013-02-04 22:04:00,5.1,2.1,29.92,SE,128,0.0,0.0,87,0.00,CLR,,0.04,WeatherDisplay:10.37,2013-02-05 04:04:00,
2013-02-04 22:06:00,5.3,2.3,29.92,SE,128,0.0,0.0,87,0.00,CLR,,0.04,WeatherDisplay:10.37,2013-02-05 04:06:00,
2013-02-04 22:08:00,5.1,2.1,29.92,SE,128,0.0,0.0,87,0.00,CLR,,0.04,WeatherDisplay:10.37,2013-02-05 04:08:00,
2013-02-04 22:09:00,5.3,2.3,29.92,SE,128,0.0,0.0,87,0.00,CLR,,0.04,WeatherDisplay:10.37,2013-02-05 04:09:00,
2013-02-04 22:11:00,5.1,2.1,29.92,SE,128,0.0,0.0,87,0.00,CLR,,0.04,WeatherDisplay:10.37,2013-02-05 04:11:00,
2013-02-04 22:13:00,5.2,2.2,29.91,SE,128,0.0,0.0,87,0.00,CLR,,0.04,WeatherDisplay:10.37,2013-02-05 04:13:00,
2013-02-04 22:14:00,5.2,2.2,29.91,SE,128,0.0,0.0,87,0.00,CLR,,0.04,WeatherDisplay:10.37,2013-02-05 04:14:00,
2013-02-04 22:16:00,5.0,2.0,29.91,SE,128,0.0,0.0,87,0.00,CLR,,0.04,WeatherDisplay:10.37,2013-02-05 04:16:00,
2013-02-04 22:18:00,5.1,2.1,29.91,SE,128,0.0,0.0,87,0.00,CLR,,0.04,WeatherDisplay:10.37,2013-02-05 04:18:00,
2013-02-04 22:19:00,5.0,2.0,29.91,SE,128,0.0,0.0,87,0.00,CLR,,0.04,WeatherDisplay:10.37,2013-02-05 04:19:00,
2013-02-04 22:21:00,5.1,2.1,29.91,SE,128,0.0,0.0,87,0.00,CLR,,0.04,WeatherDisplay:10.37,2013-02-05 04:21:00,
2013-02-04 22:23:00,4.9,1.9,29.91,SE,128,0.0,0.0,87,0.00,CLR,,0.04,WeatherDisplay:10.37,2013-02-05 04:23:00,
2013-02-04 22:24:00,4.9,1.9,29.91,SE,128,0.0,0.0,87,0.00,CLR,,0.04,WeatherDisplay:10.37,2013-02-05 04:24:00,
2013-02-04 22:26:00,4.9,1.9,29.91,SE,128,0.0,0.0,87,0.00,CLR,,0.04,WeatherDisplay:10.37,2013-02-05 04:26:00,
2013-02-04 22:28:00,4.8,1.8,29.90,SE,128,0.0,0.0,87,0.00,CLR,,0.04,WeatherDisplay:10.37,2013-02-05 04:28:00,
2013-02-04 22:29:00,4.8,1.8,29.90,SE,128,0.0,0.0,87,0.00,CLR,,0.04,WeatherDisplay:10.37,2013-02-05 04:29:00,
2013-02-04 22:31:00,4.8,1.8,29.90,SE,128,0.0,0.0,87,0.00,CLR,,0.04,WeatherDisplay:10.37,2013-02-05 04:31:00,
2013-02-04 22:34:00,4.8,1.8,29.90,SE,128,0.0,0.0,87,0.00,CLR,,0.04,WeatherDisplay:10.37,2013-02-05 04:34:00,
2013-02-04 22:36:00,4.6,1.6,29.90,SE,128,0.0,0.0,87,0.00,CLR,,0.04,WeatherDisplay:10.37,2013-02-05 04:36:00,
2013-02-04 22:39:00,4.7,1.7,29.90,SE,128,0.0,0.0,87,0.00,CLR,,0.04,WeatherDisplay:10.37,2013-02-05 04:39:00,
2013-02-04 22:41:00,4.7,1.7,29.90,SE,128,0.0,0.0,87,0.00,CLR,,0.04,WeatherDisplay:10.37,2013-02-05 04:41:00,
2013-02-04 22:44:00,4.6,1.6,29.90,SE,128,0.0,0.0,87,0.00,CLR,,0.04,WeatherDisplay:10.37,2013-02-05 04:44:00,
2013-02-04 22:46:00,4.6,1.6,29.90,SE,128,0.0,0.0,87,0.00,CLR,,0.04,WeatherDisplay:10.37,2013-02-05 04:46:00,
2013-02-04 22:49:00,4.7,1.7,29.90,SE,128,0.0,0.0,87,0.00,CLR,,0.04,WeatherDisplay:10.37,2013-02-05 04:49:00,
2013-02-04 22:50:00,4.7,1.7,29.90,SE,128,0.0,0.0,87,0.00,CLR,,0.04,WeatherDisplay:10.37,2013-02-05 04:50:00,
2013-02-04 22:52:00,4.6,1.8,29.90,SE,128,0.0,0.0,88,0.00,CLR,,0.04,WeatherDisplay:10.37,2013-02-05 04:52:00,
2013-02-04 22:54:00,4.7,1.9,29.90,SE,128,0.0,0.0,88,0.00,CLR,,0.04,WeatherDisplay:10.37,2013-02-05 04:54:00,
2013-02-04 22:55:00,4.7,1.9,29.90,SE,128,0.0,0.0,88,0.00,CLR,,0.04,WeatherDisplay:10.37,2013-02-05 04:55:00,
2013-02-04 22:57:00,4.8,2.0,29.90,SE,128,0.0,0.0,88,0.00,CLR,,0.04,WeatherDisplay:10.37,2013-02-05 04:57:00,
2013-02-04 22:59:00,4.7,1.9,29.90,SE,128,0.0,0.0,88,0.00,CLR,,0.04,WeatherDisplay:10.37,2013-02-05 04:59:00,
2013-02-04 23:00:00,4.7,1.9,29.90,SE,128,0.0,0.0,88,0.00,CLR,,0.04,WeatherDisplay:10.37,2013-02-05 05:00:00,
2013-02-04 23:05:00,4.9,2.1,29.90,SE,128,0.0,0.0,88,0.00,CLR,,0.04,WeatherDisplay:10.37,2013-02-05 05:05:00,
2013-02-04 23:10:00,5.0,2.2,29.90,SE,128,0.0,0.0,88,0.00,CLR,,0.04,WeatherDisplay:10.37,2013-02-05 05:10:00,
2013-02-04 23:15:00,5.1,2.3,29.90,SE,128,0.0,0.0,88,0.00,CLR,,0.04,WeatherDisplay:10.37,2013-02-05 05:15:00,
2013-02-04 23:20:00,5.1,2.3,29.90,SSE,158,0.1,2.3,88,0.00,CLR,,0.04,WeatherDisplay:10.37,2013-02-05 05:20:00,
2013-02-04 23:21:00,5.2,2.4,29.90,South,188,0.6,2.1,88,0.00,CLR,,0.04,WeatherDisplay:10.37,2013-02-05 05:21:00,
2013-02-04 23:25:00,5.2,2.4,29.90,South,171,0.0,0.0,88,0.00,CLR,,0.04,WeatherDisplay:10.37,2013-02-05 05:25:00,
2013-02-04 23:26:00,5.2,2.4,29.90,South,171,0.0,0.0,88,0.00,CLR,,0.04,WeatherDisplay:10.37,2013-02-05 05:26:00,
2013-02-04 23:30:00,5.2,2.4,29.90,South,171,0.0,0.0,88,0.00,CLR,,0.04,WeatherDisplay:10.37,2013-02-05 05:30:00,
2013-02-04 23:31:00,5.1,2.3,29.90,South,171,0.0,0.0,88,0.00,CLR,,0.04,WeatherDisplay:10.37,2013-02-05 05:31:00,
2013-02-04 23:35:00,5.1,2.3,29.90,South,191,0.1,1.3,88,0.00,CLR,,0.04,WeatherDisplay:10.37,2013-02-05 05:35:00,
2013-02-04 23:36:00,5.0,2.2,29.90,SSE,165,1.9,1.9,88,0.00,CLR,,0.04,WeatherDisplay:10.37,2013-02-05 05:36:00,
2013-02-04 23:41:00,5.0,2.2,29.89,SE,144,0.0,0.0,88,0.00,CLR,,0.04,WeatherDisplay:10.37,2013-02-05 05:41:00,
2013-02-04 23:42:00,5.0,2.2,29.89,SE,144,0.0,0.0,88,0.00,CLR,,0.04,WeatherDisplay:10.37,2013-02-05 05:42:00,
2013-02-04 23:46:00,4.9,2.1,29.89,SE,144,0.0,0.0,88,0.00,CLR,,0.04,WeatherDisplay:10.37,2013-02-05 05:46:00,
2013-02-04 23:47:00,4.9,2.1,29.89,SSE,167,0.2,0.9,88,0.00,CLR,,0.04,WeatherDisplay:10.37,2013-02-05 05:47:00,
2013-02-04 23:51:00,4.8,2.0,29.89,South,181,0.3,1.1,88,0.00,CLR,,0.04,WeatherDisplay:10.37,2013-02-05 05:51:00,
2013-02-04 23:52:00,4.8,2.0,29.89,South,181,0.0,0.0,88,0.00,CLR,,0.04,WeatherDisplay:10.37,2013-02-05 05:52:00,
2013-02-04 23:56:00,4.7,1.9,29.90,South,181,0.0,0.0,88,0.00,CLR,,0.04,WeatherDisplay:10.37,2013-02-05 05:56:00,
2013-02-04 23:57:00,4.6,1.8,29.90,South,181,0.0,0.0,88,0.00,CLR,,0.04,WeatherDisplay:10.37,2013-02-05 05:57:00,